Time,TemperatureF,DewpointF,PressureIn,WindDirection,WindDirectionDegrees,WindSpeedMPH,WindSpeedGustMPH,Humidity,HourlyPrecipIn,Conditions,Clouds,dailyrainin,SoftwareType,DateUTC
2013-08-28 00:01:00,76.3,71.8,29.93,ESE,112,0.0,2.0,86,0.00,,,0.01,Wunderground v.1.15,2013-08-28 05:01:00,
2013-08-28 00:03:00,76.1,71.6,29.93,ESE,109,0.0,3.0,86,0.00,,,0.00,Wunderground v.1.15,2013-08-28 05:03:00,
2013-08-28 00:04:00,76.1,71.6,29.93,ESE,109,0.0,3.0,86,0.00,,,0.00,Wunderground v.1.15,2013-08-28 05:04:00,
2013-08-28 00:08:00,76.1,71.6,29.93,ESE,109,1.0,3.0,86,0.00,,,0.00,Wunderground v.1.15,2013-08-28 05:08:00,
2013-08-28 00:10:00,76.0,71.5,29.93,ESE,109,1.0,3.0,86,0.00,,,0.00,Wunderground v.1.15,2013-08-28 05:10:00,
2013-08-28 00:11:00,76.0,71.5,29.93,ESE,109,1.0,1.0,86,0.00,,,0.00,Wunderground v.1.15,2013-08-28 05:11:00,
2013-08-28 00:13:00,76.0,71.5,29.93,ESE,109,1.0,2.0,86,0.00,,,0.00,Wunderground v.1.15,2013-08-28 05:13:00,
2013-08-28 00:15:00,76.0,71.5,29.93,ESE,109,1.0,2.0,86,0.00,,,0.00,Wunderground v.1.15,2013-08-28 05:15:00,
2013-08-28 00:16:00,76.0,71.5,29.93,ESE,109,0.0,2.0,86,0.00,,,0.00,Wunderground v.1.15,2013-08-28 05:16:00,
2013-08-28 00:19:00,75.8,71.3,29.93,ESE,109,0.0,2.0,86,0.00,,,0.00,Wunderground v.1.15,2013-08-28 05:19:00,
2013-08-28 00:21:00,75.8,71.7,29.93,ESE,109,1.0,1.0,87,0.00,,,0.00,Wunderground v.1.15,2013-08-28 05:21:00,
2013-08-28 00:22:00,75.8,71.7,29.93,ESE,109,1.0,1.0,87,0.00,,,0.00,Wunderground v.1.15,2013-08-28 05:22:00,
2013-08-28 00:23:00,75.8,71.7,29.93,ESE,109,1.0,1.0,87,0.00,,,0.00,Wunderground v.1.15,2013-08-28 05:23:00,
2013-08-28 00:28:00,75.6,71.5,29.93,ESE,109,0.0,1.0,87,0.00,,,0.00,Wunderground v.1.15,2013-08-28 05:28:00,
2013-08-28 00:29:00,75.6,71.5,29.93,ESE,107,0.0,1.0,87,0.00,,,0.00,Wunderground v.1.15,2013-08-28 05:29:00,
2013-08-28 00:34:00,75.6,71.5,29.94,ESE,107,0.0,0.0,87,0.00,,,0.00,Wunderground v.1.15,2013-08-28 05:34:00,
2013-08-28 00:35:00,75.6,71.5,29.94,ESE,107,0.0,0.0,87,0.00,,,0.00,Wunderground v.1.15,2013-08-28 05:35:00,
2013-08-28 00:36:00,75.6,71.5,29.94,ESE,107,0.0,0.0,87,0.00,,,0.00,Wunderground v.1.15,2013-08-28 05:36:00,
2013-08-28 00:39:00,75.4,71.3,29.94,ESE,107,0.0,0.0,87,0.00,,,0.00,Wunderground v.1.15,2013-08-28 05:39:00,
2013-08-28 00:40:00,75.4,71.6,29.94,ESE,107,0.0,0.0,88,0.00,,,0.00,Wunderground v.1.15,2013-08-28 05:40:00,
2013-08-28 00:41:00,75.4,71.6,29.94,ESE,107,0.0,0.0,88,0.00,,,0.00,Wunderground v.1.15,2013-08-28 05:41:00,
2013-08-28 00:43:00,75.4,71.6,29.94,ESE,107,0.0,0.0,88,0.00,,,0.00,Wunderground v.1.15,2013-08-28 05:43:00,
2013-08-28 00:44:00,75.4,71.6,29.94,ESE,107,0.0,0.0,88,0.00,,,0.00,Wunderground v.1.15,2013-08-28 05:44:00,
2013-08-28 00:46:00,75.4,71.6,29.94,ESE,107,0.0,0.0,88,0.00,,,0.00,Wunderground v.1.15,2013-08-28 05:46:00,
2013-08-28 00:49:00,75.4,71.6,29.94,ESE,107,0.0,0.0,88,0.00,,,0.00,Wunderground v.1.15,2013-08-28 05:49:00,
2013-08-28 00:50:00,75.3,71.5,29.94,ESE,107,0.0,0.0,88,0.00,,,0.00,Wunderground v.1.15,2013-08-28 05:50:00,
2013-08-28 00:51:00,75.3,71.5,29.94,ESE,107,0.0,0.0,88,0.00,,,0.00,Wunderground v.1.15,2013-08-28 05:51:00,
2013-08-28 00:53:00,75.3,71.5,29.94,ESE,107,0.0,0.0,88,0.00,,,0.00,Wunderground v.1.15,2013-08-28 05:53:00,
2013-08-28 00:56:00,75.3,71.5,29.94,ESE,107,0.0,0.0,88,0.00,,,0.00,Wunderground v.1.15,2013-08-28 05:56:00,
2013-08-28 00:57:00,75.3,71.5,29.94,ESE,107,0.0,0.0,88,0.00,,,0.00,Wunderground v.1.15,2013-08-28 05:57:00,
2013-08-28 00:58:00,75.3,71.5,29.94,ESE,107,0.0,0.0,88,0.00,,,0.00,Wunderground v.1.15,2013-08-28 05:58:00,
2013-08-28 01:00:00,75.3,71.5,29.94,ESE,107,0.0,0.0,88,0.00,,,0.00,Wunderground v.1.15,2013-08-28 06:00:00,
2013-08-28 01:03:00,75.3,71.8,29.94,ESE,107,0.0,0.0,89,0.00,,,0.00,Wunderground v.1.15,2013-08-28 06:03:00,
2013-08-28 01:04:00,75.3,71.8,29.94,ESE,107,0.0,0.0,89,0.00,,,0.00,Wunderground v.1.15,2013-08-28 06:04:00,
2013-08-28 01:08:00,75.3,71.8,29.94,ESE,107,0.0,0.0,89,0.00,,,0.00,Wunderground v.1.15,2013-08-28 06:08:00,
2013-08-28 01:09:00,75.3,71.8,29.94,ESE,107,0.0,0.0,89,0.00,,,0.00,Wunderground v.1.15,2013-08-28 06:09:00,
2013-08-28 01:11:00,75.3,71.8,29.94,ESE,107,0.0,0.0,89,0.00,,,0.00,Wunderground v.1.15,2013-08-28 06:11:00,
2013-08-28 01:13:00,75.1,71.6,29.94,ESE,107,0.0,0.0,89,0.00,,,0.00,Wunderground v.1.15,2013-08-28 06:13:00,
2013-08-28 01:14:00,75.1,71.6,29.94,ESE,107,0.0,0.0,89,0.00,,,0.00,Wunderground v.1.15,2013-08-28 06:14:00,
2013-08-28 01:17:00,75.1,71.6,29.94,ESE,107,0.0,0.0,89,0.00,,,0.00,Wunderground v.1.15,2013-08-28 06:17:00,
2013-08-28 01:18:00,75.1,71.6,29.94,ESE,107,0.0,0.0,89,0.00,,,0.00,Wunderground v.1.15,2013-08-28 06:18:00,
2013-08-28 01:21:00,75.1,71.6,29.94,ESE,107,0.0,0.0,89,0.00,,,0.00,Wunderground v.1.15,2013-08-28 06:21:00,
2013-08-28 01:24:00,75.1,71.6,29.94,ESE,107,0.0,0.0,89,0.00,,,0.00,Wunderground v.1.15,2013-08-28 06:24:00,
2013-08-28 01:25:00,75.1,71.6,29.94,ESE,107,0.0,0.0,89,0.00,,,0.00,Wunderground v.1.15,2013-08-28 06:25:00,
2013-08-28 01:26:00,75.1,71.6,29.94,ESE,107,0.0,0.0,89,0.00,,,0.00,Wunderground v.1.15,2013-08-28 06:26:00,
2013-08-28 01:27:00,75.1,71.6,29.94,ESE,107,0.0,0.0,89,0.00,,,0.00,Wunderground v.1.15,2013-08-28 06:27:00,
2013-08-28 01:31:00,75.1,71.6,29.94,ESE,107,0.0,0.0,89,0.00,,,0.00,Wunderground v.1.15,2013-08-28 06:31:00,
2013-08-28 01:32:00,75.1,71.6,29.94,ESE,107,0.0,0.0,89,0.00,,,0.00,Wunderground v.1.15,2013-08-28 06:32:00,
2013-08-28 01:34:00,75.1,71.6,29.94,ESE,107,0.0,0.0,89,0.00,,,0.00,Wunderground v.1.15,2013-08-28 06:34:00,
2013-08-28 01:35:00,75.1,71.6,29.94,ESE,107,0.0,0.0,89,0.00,,,0.00,Wunderground v.1.15,2013-08-28 06:35:00,
2013-08-28 01:37:00,75.1,71.6,29.94,ESE,107,0.0,0.0,89,0.00,,,0.00,Wunderground v.1.15,2013-08-28 06:37:00,
2013-08-28 01:38:00,75.1,71.6,29.94,ESE,107,0.0,1.0,89,0.00,,,0.00,Wunderground v.1.15,2013-08-28 06:38:00,
2013-08-28 01:39:00,75.1,71.6,29.94,ESE,107,0.0,1.0,89,0.00,,,0.00,Wunderground v.1.15,2013-08-28 06:39:00,
2013-08-28 01:42:00,75.1,71.6,29.94,ESE,107,0.0,0.0,89,0.00,,,0.00,Wunderground v.1.15,2013-08-28 06:42:00,
2013-08-28 01:43:00,74.9,71.4,29.94,ESE,107,0.0,0.0,89,0.00,,,0.00,Wunderground v.1.15,2013-08-28 06:43:00,
2013-08-28 01:45:00,74.9,71.4,29.94,ESE,107,0.0,0.0,89,0.00,,,0.00,Wunderground v.1.15,2013-08-28 06:45:00,
2013-08-28 01:47:00,74.9,71.4,29.93,ESE,107,0.0,0.0,89,0.00,,,0.00,Wunderground v.1.15,2013-08-28 06:47:00,
2013-08-28 01:48:00,74.9,71.4,29.93,ESE,107,0.0,0.0,89,0.00,,,0.00,Wunderground v.1.15,2013-08-28 06:48:00,
2013-08-28 01:51:00,74.9,71.8,29.93,ESE,107,0.0,0.0,90,0.00,,,0.00,Wunderground v.1.15,2013-08-28 06:51:00,
2013-08-28 01:54:00,75.1,72.0,29.93,ESE,107,0.0,2.0,90,0.00,,,0.00,Wunderground v.1.15,2013-08-28 06:54:00,
2013-08-28 01:55:00,75.1,72.0,29.93,ESE,107,1.0,2.0,90,0.00,,,0.00,Wunderground v.1.15,2013-08-28 06:55:00,
2013-08-28 01:56:00,75.1,72.0,29.93,ESE,107,1.0,2.0,90,0.00,,,0.00,Wunderground v.1.15,2013-08-28 06:56:00,
2013-08-28 01:58:00,75.1,72.0,29.93,ESE,107,1.0,2.0,90,0.00,,,0.00,Wunderground v.1.15,2013-08-28 06:58:00,
2013-08-28 02:01:00,75.1,72.0,29.93,ESE,107,0.0,2.0,90,0.00,,,0.00,Wunderground v.1.15,2013-08-28 07:01:00,
2013-08-28 02:03:00,75.3,72.2,29.94,ESE,107,1.0,2.0,90,0.00,,,0.00,Wunderground v.1.15,2013-08-28 07:03:00,
2013-08-28 02:05:00,75.3,72.2,29.94,ESE,107,1.0,2.0,90,0.00,,,0.00,Wunderground v.1.15,2013-08-28 07:05:00,
2013-08-28 02:06:00,75.3,72.2,29.94,ESE,107,1.0,2.0,90,0.00,,,0.00,Wunderground v.1.15,2013-08-28 07:06:00,
2013-08-28 02:07:00,75.3,72.2,29.94,ESE,107,1.0,2.0,90,0.00,,,0.00,Wunderground v.1.15,2013-08-28 07:07:00,
2013-08-28 02:11:00,75.3,72.2,29.94,ESE,107,1.0,1.0,90,0.00,,,0.00,Wunderground v.1.15,2013-08-28 07:11:00,
2013-08-28 02:12:00,75.3,72.2,29.94,ESE,107,0.0,1.0,90,0.00,,,0.00,Wunderground v.1.15,2013-08-28 07:12:00,
2013-08-28 02:13:00,75.3,72.2,29.94,ESE,107,0.0,1.0,90,0.00,,,0.00,Wunderground v.1.15,2013-08-28 07:13:00,
2013-08-28 02:16:00,75.3,72.2,29.94,ESE,107,0.0,1.0,90,0.00,,,0.00,Wunderground v.1.15,2013-08-28 07:16:00,
2013-08-28 02:18:00,75.3,72.2,29.94,ESE,107,0.0,1.0,90,0.00,,,0.00,Wunderground v.1.15,2013-08-28 07:18:00,
2013-08-28 02:19:00,75.3,72.2,29.94,ESE,107,0.0,1.0,90,0.00,,,0.00,Wunderground v.1.15,2013-08-28 07:19:00,
2013-08-28 02:21:00,75.3,72.2,29.94,ESE,107,0.0,0.0,90,0.00,,,0.00,Wunderground v.1.15,2013-08-28 07:21:00,
2013-08-28 02:23:00,75.4,72.3,29.94,ESE,107,0.0,0.0,90,0.00,,,0.00,Wunderground v.1.15,2013-08-28 07:23:00,
2013-08-28 02:24:00,75.4,72.3,29.94,ESE,107,0.0,0.0,90,0.00,,,0.00,Wunderground v.1.15,2013-08-28 07:24:00,
2013-08-28 02:26:00,75.4,72.3,29.94,ESE,107,0.0,2.0,90,0.00,,,0.00,Wunderground v.1.15,2013-08-28 07:26:00,
2013-08-28 02:28:00,75.4,72.3,29.94,ESE,107,0.0,2.0,90,0.00,,,0.00,Wunderground v.1.15,2013-08-28 07:28:00,
2013-08-28 02:31:00,75.4,72.3,29.94,ESE,107,0.0,2.0,90,0.00,,,0.00,Wunderground v.1.15,2013-08-28 07:31:00,
2013-08-28 02:32:00,75.4,72.3,29.93,ESE,107,0.0,0.0,90,0.00,,,0.00,Wunderground v.1.15,2013-08-28 07:32:00,
2013-08-28 02:33:00,75.4,72.3,29.93,ESE,107,0.0,0.0,90,0.00,,,0.00,Wunderground v.1.15,2013-08-28 07:33:00,
2013-08-28 02:35:00,75.4,72.3,29.93,ESE,107,0.0,0.0,90,0.00,,,0.00,Wunderground v.1.15,2013-08-28 07:35:00,
2013-08-28 02:37:00,75.3,72.2,29.93,ESE,107,0.0,0.0,90,0.00,,,0.00,Wunderground v.1.15,2013-08-28 07:37:00,
2013-08-28 02:41:00,75.3,72.2,29.93,ESE,107,0.0,0.0,90,0.00,,,0.00,Wunderground v.1.15,2013-08-28 07:41:00,
2013-08-28 02:44:00,75.3,72.2,29.93,ESE,107,0.0,0.0,90,0.00,,,0.00,Wunderground v.1.15,2013-08-28 07:44:00,
2013-08-28 02:45:00,75.1,72.0,29.93,ESE,107,0.0,0.0,90,0.00,,,0.00,Wunderground v.1.15,2013-08-28 07:45:00,
2013-08-28 02:46:00,75.1,72.0,29.93,ESE,107,0.0,0.0,90,0.00,,,0.00,Wunderground v.1.15,2013-08-28 07:46:00,
2013-08-28 02:47:00,75.1,72.0,29.94,ESE,107,0.0,0.0,90,0.00,,,0.00,Wunderground v.1.15,2013-08-28 07:47:00,
2013-08-28 02:49:00,75.1,72.0,29.94,ESE,107,0.0,0.0,90,0.00,,,0.00,Wunderground v.1.15,2013-08-28 07:49:00,
2013-08-28 02:51:00,75.1,72.0,29.94,ESE,107,0.0,0.0,90,0.00,,,0.00,Wunderground v.1.15,2013-08-28 07:51:00,
2013-08-28 02:52:00,75.1,72.0,29.94,ESE,107,0.0,0.0,90,0.00,,,0.00,Wunderground v.1.15,2013-08-28 07:52:00,
2013-08-28 02:54:00,75.1,72.0,29.94,ESE,107,0.0,0.0,90,0.00,,,0.00,Wunderground v.1.15,2013-08-28 07:54:00,
2013-08-28 02:57:00,75.1,72.0,29.94,ESE,107,0.0,0.0,90,0.00,,,0.00,Wunderground v.1.15,2013-08-28 07:57:00,
2013-08-28 02:58:00,75.1,72.0,29.94,ESE,107,0.0,0.0,90,0.00,,,0.00,Wunderground v.1.15,2013-08-28 07:58:00,
2013-08-28 02:59:00,75.1,72.0,29.94,ESE,107,0.0,0.0,90,0.00,,,0.00,Wunderground v.1.15,2013-08-28 07:59:00,
2013-08-28 03:05:00,74.9,71.8,29.94,ESE,107,0.0,0.0,90,0.00,,,0.00,Wunderground v.1.15,2013-08-28 08:05:00,
2013-08-28 03:06:00,74.9,72.1,29.94,ESE,107,0.0,0.0,91,0.00,,,0.00,Wunderground v.1.15,2013-08-28 08:06:00,
2013-08-28 03:07:00,74.9,72.1,29.94,ESE,107,0.0,0.0,91,0.00,,,0.00,Wunderground v.1.15,2013-08-28 08:07:00,
2013-08-28 03:08:00,74.9,72.1,29.94,ESE,107,0.0,0.0,91,0.00,,,0.00,Wunderground v.1.15,2013-08-28 08:08:00,
2013-08-28 03:11:00,74.9,72.1,29.94,ESE,107,0.0,0.0,91,0.00,,,0.00,Wunderground v.1.15,2013-08-28 08:11:00,
2013-08-28 03:13:00,74.9,72.1,29.94,ESE,107,0.0,0.0,91,0.00,,,0.00,Wunderground v.1.15,2013-08-28 08:13:00,
2013-08-28 03:14:00,74.9,72.1,29.94,ESE,107,0.0,0.0,91,0.00,,,0.00,Wunderground v.1.15,2013-08-28 08:14:00,
2013-08-28 03:16:00,74.9,72.1,29.94,ESE,107,0.0,0.0,91,0.00,,,0.00,Wunderground v.1.15,2013-08-28 08:16:00,
2013-08-28 03:17:00,74.9,72.1,29.94,ESE,107,0.0,0.0,91,0.00,,,0.00,Wunderground v.1.15,2013-08-28 08:17:00,
2013-08-28 03:19:00,74.9,72.1,29.94,ESE,107,0.0,0.0,91,0.00,,,0.00,Wunderground v.1.15,2013-08-28 08:19:00,
2013-08-28 03:21:00,74.9,72.1,29.94,ESE,107,0.0,0.0,91,0.00,,,0.00,Wunderground v.1.15,2013-08-28 08:21:00,
2013-08-28 03:22:00,74.9,72.1,29.94,ESE,107,0.0,0.0,91,0.00,,,0.00,Wunderground v.1.15,2013-08-28 08:22:00,
2013-08-28 03:24:00,74.9,72.1,29.94,ESE,107,0.0,0.0,91,0.00,,,0.00,Wunderground v.1.15,2013-08-28 08:24:00,
2013-08-28 03:25:00,74.9,72.1,29.94,ESE,107,0.0,0.0,91,0.00,,,0.00,Wunderground v.1.15,2013-08-28 08:25:00,
2013-08-28 03:29:00,74.9,72.1,29.94,ESE,107,0.0,0.0,91,0.00,,,0.00,Wunderground v.1.15,2013-08-28 08:29:00,
2013-08-28 03:31:00,74.9,72.1,29.94,ESE,107,0.0,0.0,91,0.00,,,0.00,Wunderground v.1.15,2013-08-28 08:31:00,
2013-08-28 03:34:00,74.9,72.1,29.94,ESE,107,0.0,0.0,91,0.00,,,0.00,Wunderground v.1.15,2013-08-28 08:34:00,
2013-08-28 03:36:00,74.9,72.1,29.94,ESE,107,0.0,0.0,91,0.00,,,0.00,Wunderground v.1.15,2013-08-28 08:36:00,
2013-08-28 03:37:00,74.9,72.1,29.94,ESE,107,0.0,0.0,91,0.00,,,0.00,Wunderground v.1.15,2013-08-28 08:37:00,
2013-08-28 03:42:00,74.9,72.1,29.94,ESE,107,0.0,0.0,91,0.00,,,0.00,Wunderground v.1.15,2013-08-28 08:42:00,
2013-08-28 03:43:00,74.9,72.1,29.94,ESE,107,0.0,0.0,91,0.00,,,0.00,Wunderground v.1.15,2013-08-28 08:43:00,
2013-08-28 03:46:00,74.9,72.1,29.94,ESE,107,0.0,0.0,91,0.00,,,0.00,Wunderground v.1.15,2013-08-28 08:46:00,
2013-08-28 03:47:00,74.9,72.1,29.93,ESE,107,0.0,0.0,91,0.00,,,0.00,Wunderground v.1.15,2013-08-28 08:47:00,
2013-08-28 03:48:00,74.9,72.1,29.93,ESE,107,0.0,0.0,91,0.00,,,0.00,Wunderground v.1.15,2013-08-28 08:48:00,
2013-08-28 03:49:00,74.9,72.1,29.93,ESE,107,0.0,0.0,91,0.00,,,0.00,Wunderground v.1.15,2013-08-28 08:49:00,
2013-08-28 03:53:00,74.9,72.4,29.93,ESE,107,0.0,0.0,92,0.00,,,0.00,Wunderground v.1.15,2013-08-28 08:53:00,
2013-08-28 03:54:00,74.9,72.4,29.93,ESE,107,0.0,0.0,92,0.00,,,0.00,Wunderground v.1.15,2013-08-28 08:54:00,
2013-08-28 03:57:00,74.9,72.4,29.93,ESE,107,0.0,0.0,92,0.00,,,0.00,Wunderground v.1.15,2013-08-28 08:57:00,
2013-08-28 03:58:00,74.9,72.4,29.93,ESE,107,0.0,0.0,92,0.00,,,0.00,Wunderground v.1.15,2013-08-28 08:58:00,
2013-08-28 03:59:00,74.9,72.4,29.93,ESE,107,0.0,0.0,92,0.00,,,0.00,Wunderground v.1.15,2013-08-28 08:59:00,
2013-08-28 04:03:00,74.9,72.4,29.93,ESE,107,0.0,0.0,92,0.00,,,0.00,Wunderground v.1.15,2013-08-28 09:03:00,
2013-08-28 04:04:00,74.9,72.4,29.93,ESE,107,0.0,0.0,92,0.00,,,0.00,Wunderground v.1.15,2013-08-28 09:04:00,
2013-08-28 04:05:00,74.9,72.4,29.93,ESE,107,0.0,0.0,92,0.00,,,0.00,Wunderground v.1.15,2013-08-28 09:05:00,
2013-08-28 04:06:00,74.9,72.4,29.93,ESE,107,0.0,0.0,92,0.00,,,0.00,Wunderground v.1.15,2013-08-28 09:06:00,
2013-08-28 04:08:00,74.9,72.4,29.93,ESE,107,0.0,0.0,92,0.00,,,0.00,Wunderground v.1.15,2013-08-28 09:08:00,
2013-08-28 04:11:00,74.7,72.2,29.93,ESE,107,0.0,0.0,92,0.00,,,0.00,Wunderground v.1.15,2013-08-28 09:11:00,
2013-08-28 04:13:00,74.7,72.2,29.93,ESE,107,0.0,0.0,92,0.00,,,0.00,Wunderground v.1.15,2013-08-28 09:13:00,
2013-08-28 04:14:00,74.7,72.2,29.93,ESE,107,0.0,0.0,92,0.00,,,0.00,Wunderground v.1.15,2013-08-28 09:14:00,
2013-08-28 04:15:00,74.7,72.2,29.93,ESE,107,0.0,0.0,92,0.00,,,0.00,Wunderground v.1.15,2013-08-28 09:15:00,
2013-08-28 04:21:00,74.9,72.4,29.92,ESE,107,0.0,0.0,92,0.00,,,0.00,Wunderground v.1.15,2013-08-28 09:21:00,
2013-08-28 04:23:00,74.9,72.4,29.92,ESE,107,0.0,0.0,92,0.00,,,0.00,Wunderground v.1.15,2013-08-28 09:23:00,
2013-08-28 04:24:00,74.9,72.4,29.92,ESE,107,0.0,0.0,92,0.00,,,0.00,Wunderground v.1.15,2013-08-28 09:24:00,
2013-08-28 04:28:00,74.9,72.4,29.92,ESE,107,0.0,0.0,92,0.00,,,0.00,Wunderground v.1.15,2013-08-28 09:28:00,
2013-08-28 04:31:00,74.9,72.4,29.92,ESE,107,0.0,0.0,92,0.00,,,0.00,Wunderground v.1.15,2013-08-28 09:31:00,
2013-08-28 04:33:00,74.9,72.4,29.93,ESE,107,0.0,0.0,92,0.00,,,0.00,Wunderground v.1.15,2013-08-28 09:33:00,
2013-08-28 04:34:00,74.9,72.4,29.93,ESE,107,0.0,0.0,92,0.00,,,0.00,Wunderground v.1.15,2013-08-28 09:34:00,
2013-08-28 04:37:00,74.9,72.4,29.93,ESE,107,0.0,0.0,92,0.00,,,0.00,Wunderground v.1.15,2013-08-28 09:37:00,
2013-08-28 04:38:00,74.9,72.4,29.93,ESE,107,0.0,0.0,92,0.00,,,0.00,Wunderground v.1.15,2013-08-28 09:38:00,
2013-08-28 04:39:00,74.9,72.4,29.93,ESE,107,0.0,0.0,92,0.00,,,0.00,Wunderground v.1.15,2013-08-28 09:39:00,
2013-08-28 04:42:00,74.9,72.4,29.93,ESE,107,0.0,0.0,92,0.00,,,0.00,Wunderground v.1.15,2013-08-28 09:42:00,
2013-08-28 04:44:00,74.9,72.4,29.93,ESE,107,0.0,0.0,92,0.00,,,0.00,Wunderground v.1.15,2013-08-28 09:44:00,
2013-08-28 04:45:00,74.9,72.4,29.93,ESE,107,0.0,0.0,92,0.00,,,0.00,Wunderground v.1.15,2013-08-28 09:45:00,
2013-08-28 04:46:00,74.9,72.4,29.93,ESE,107,0.0,0.0,92,0.00,,,0.00,Wunderground v.1.15,2013-08-28 09:46:00,
2013-08-28 04:47:00,74.9,72.7,29.93,ESE,107,0.0,0.0,93,0.00,,,0.00,Wunderground v.1.15,2013-08-28 09:47:00,
2013-08-28 04:48:00,74.9,72.7,29.93,ESE,107,0.0,0.0,93,0.00,,,0.00,Wunderground v.1.15,2013-08-28 09:48:00,
2013-08-28 04:49:00,74.9,72.4,29.93,ESE,107,0.0,0.0,92,0.00,,,0.00,Wunderground v.1.15,2013-08-28 09:49:00,
2013-08-28 04:53:00,74.9,72.7,29.93,ESE,107,0.0,0.0,93,0.00,,,0.00,Wunderground v.1.15,2013-08-28 09:53:00,
2013-08-28 04:54:00,74.9,72.7,29.93,ESE,107,0.0,0.0,93,0.00,,,0.00,Wunderground v.1.15,2013-08-28 09:54:00,
2013-08-28 04:55:00,74.9,72.7,29.93,ESE,107,0.0,0.0,93,0.00,,,0.00,Wunderground v.1.15,2013-08-28 09:55:00,
2013-08-28 04:56:00,74.9,72.7,29.93,ESE,107,0.0,0.0,93,0.00,,,0.00,Wunderground v.1.15,2013-08-28 09:56:00,
2013-08-28 05:01:00,74.7,72.5,29.93,ESE,107,0.0,0.0,93,0.00,,,0.00,Wunderground v.1.15,2013-08-28 10:01:00,
2013-08-28 05:02:00,74.7,72.5,29.93,ESE,107,0.0,0.0,93,0.00,,,0.00,Wunderground v.1.15,2013-08-28 10:02:00,
2013-08-28 05:03:00,74.7,72.5,29.93,ESE,107,0.0,0.0,93,0.00,,,0.00,Wunderground v.1.15,2013-08-28 10:03:00,
2013-08-28 05:06:00,74.7,72.5,29.93,ESE,107,0.0,0.0,93,0.00,,,0.00,Wunderground v.1.15,2013-08-28 10:06:00,
2013-08-28 05:07:00,74.7,72.5,29.93,ESE,107,0.0,0.0,93,0.00,,,0.00,Wunderground v.1.15,2013-08-28 10:07:00,
2013-08-28 05:08:00,74.7,72.5,29.93,ESE,107,0.0,0.0,93,0.00,,,0.00,Wunderground v.1.15,2013-08-28 10:08:00,
2013-08-28 05:09:00,74.7,72.5,29.93,ESE,107,0.0,0.0,93,0.00,,,0.00,Wunderground v.1.15,2013-08-28 10:09:00,
2013-08-28 05:11:00,74.9,72.7,29.93,ESE,107,0.0,0.0,93,0.00,,,0.00,Wunderground v.1.15,2013-08-28 10:11:00,
2013-08-28 05:12:00,74.7,72.5,29.93,ESE,107,0.0,0.0,93,0.00,,,0.00,Wunderground v.1.15,2013-08-28 10:12:00,
2013-08-28 05:13:00,74.7,72.5,29.93,ESE,107,0.0,0.0,93,0.00,,,0.00,Wunderground v.1.15,2013-08-28 10:13:00,
2013-08-28 05:14:00,74.7,72.5,29.93,ESE,107,0.0,0.0,93,0.00,,,0.00,Wunderground v.1.15,2013-08-28 10:14:00,
2013-08-28 05:15:00,74.7,72.5,29.93,ESE,107,0.0,0.0,93,0.00,,,0.00,Wunderground v.1.15,2013-08-28 10:15:00,
2013-08-28 05:17:00,74.9,72.7,29.93,ESE,107,0.0,0.0,93,0.00,,,0.00,Wunderground v.1.15,2013-08-28 10:17:00,
2013-08-28 05:19:00,74.7,72.5,29.93,ESE,107,0.0,0.0,93,0.00,,,0.00,Wunderground v.1.15,2013-08-28 10:19:00,
2013-08-28 05:21:00,74.7,72.5,29.93,ESE,107,0.0,0.0,93,0.00,,,0.00,Wunderground v.1.15,2013-08-28 10:21:00,
2013-08-28 05:23:00,74.7,72.5,29.93,ESE,107,0.0,0.0,93,0.00,,,0.00,Wunderground v.1.15,2013-08-28 10:23:00,
2013-08-28 05:28:00,74.7,72.5,29.93,ESE,107,0.0,0.0,93,0.00,,,0.00,Wunderground v.1.15,2013-08-28 10:28:00,
2013-08-28 05:29:00,74.7,72.5,29.93,ESE,107,0.0,0.0,93,0.00,,,0.00,Wunderground v.1.15,2013-08-28 10:29:00,
2013-08-28 05:31:00,74.6,72.4,29.93,ESE,107,0.0,0.0,93,0.00,,,0.00,Wunderground v.1.15,2013-08-28 10:31:00,
2013-08-28 05:34:00,74.6,72.4,29.94,ESE,107,0.0,0.0,93,0.00,,,0.00,Wunderground v.1.15,2013-08-28 10:34:00,
2013-08-28 05:35:00,74.6,72.4,29.94,ESE,107,0.0,0.0,93,0.00,,,0.00,Wunderground v.1.15,2013-08-28 10:35:00,
2013-08-28 05:37:00,74.6,72.8,29.94,ESE,107,0.0,0.0,94,0.00,,,0.00,Wunderground v.1.15,2013-08-28 10:37:00,
2013-08-28 05:39:00,74.6,72.8,29.94,ESE,107,0.0,0.0,94,0.00,,,0.00,Wunderground v.1.15,2013-08-28 10:39:00,
2013-08-28 05:41:00,74.7,72.9,29.94,ESE,107,0.0,0.0,94,0.00,,,0.00,Wunderground v.1.15,2013-08-28 10:41:00,
2013-08-28 05:44:00,74.6,72.8,29.94,ESE,107,0.0,0.0,94,0.00,,,0.00,Wunderground v.1.15,2013-08-28 10:44:00,
2013-08-28 05:46:00,74.6,72.8,29.94,ESE,107,0.0,0.0,94,0.00,,,0.00,Wunderground v.1.15,2013-08-28 10:46:00,
2013-08-28 05:48:00,74.6,72.8,29.94,ESE,107,0.0,0.0,94,0.00,,,0.00,Wunderground v.1.15,2013-08-28 10:48:00,
2013-08-28 05:49:00,74.6,72.8,29.94,ESE,107,0.0,0.0,94,0.00,,,0.00,Wunderground v.1.15,2013-08-28 10:49:00,
2013-08-28 05:51:00,74.4,72.6,29.94,ESE,107,0.0,0.0,94,0.00,,,0.00,Wunderground v.1.15,2013-08-28 10:51:00,
2013-08-28 05:53:00,74.4,72.6,29.94,ESE,107,0.0,0.0,94,0.00,,,0.00,Wunderground v.1.15,2013-08-28 10:53:00,
2013-08-28 05:54:00,74.4,72.6,29.94,ESE,107,0.0,0.0,94,0.00,,,0.00,Wunderground v.1.15,2013-08-28 10:54:00,
2013-08-28 05:56:00,74.4,72.6,29.94,ESE,107,0.0,0.0,94,0.00,,,0.00,Wunderground v.1.15,2013-08-28 10:56:00,
2013-08-28 05:58:00,74.4,72.6,29.94,ESE,107,0.0,0.0,94,0.00,,,0.00,Wunderground v.1.15,2013-08-28 10:58:00,
2013-08-28 06:01:00,74.4,72.6,29.94,ESE,107,0.0,0.0,94,0.00,,,0.00,Wunderground v.1.15,2013-08-28 11:01:00,
2013-08-28 06:02:00,74.4,72.6,29.94,ESE,107,0.0,0.0,94,0.00,,,0.00,Wunderground v.1.15,2013-08-28 11:02:00,
2013-08-28 06:03:00,74.4,72.6,29.94,ESE,107,0.0,0.0,94,0.00,,,0.00,Wunderground v.1.15,2013-08-28 11:03:00,
2013-08-28 06:07:00,74.4,72.6,29.94,ESE,107,0.0,0.0,94,0.00,,,0.00,Wunderground v.1.15,2013-08-28 11:07:00,
2013-08-28 06:08:00,74.4,72.6,29.94,ESE,107,0.0,0.0,94,0.00,,,0.00,Wunderground v.1.15,2013-08-28 11:08:00,
2013-08-28 06:09:00,74.4,72.6,29.94,ESE,107,0.0,0.0,94,0.00,,,0.00,Wunderground v.1.15,2013-08-28 11:09:00,
2013-08-28 06:11:00,74.4,72.9,29.94,ESE,107,0.0,0.0,95,0.00,,,0.00,Wunderground v.1.15,2013-08-28 11:11:00,
2013-08-28 06:13:00,74.4,72.9,29.94,ESE,107,0.0,0.0,95,0.00,,,0.00,Wunderground v.1.15,2013-08-28 11:13:00,
2013-08-28 06:16:00,74.4,72.9,29.94,ESE,107,0.0,0.0,95,0.00,,,0.00,Wunderground v.1.15,2013-08-28 11:16:00,
2013-08-28 06:18:00,74.4,72.9,29.94,ESE,107,0.0,0.0,95,0.00,,,0.00,Wunderground v.1.15,2013-08-28 11:18:00,
2013-08-28 06:21:00,74.4,72.9,29.94,ESE,107,0.0,0.0,95,0.00,,,0.00,Wunderground v.1.15,2013-08-28 11:21:00,
2013-08-28 06:23:00,74.4,72.9,29.94,ESE,107,0.0,0.0,95,0.00,,,0.00,Wunderground v.1.15,2013-08-28 11:23:00,
2013-08-28 06:25:00,74.2,72.7,29.94,ESE,107,0.0,0.0,95,0.00,,,0.00,Wunderground v.1.15,2013-08-28 11:25:00,
2013-08-28 06:28:00,74.2,72.7,29.94,ESE,107,0.0,0.0,95,0.00,,,0.00,Wunderground v.1.15,2013-08-28 11:28:00,
2013-08-28 06:29:00,74.2,72.7,29.94,ESE,107,0.0,0.0,95,0.00,,,0.00,Wunderground v.1.15,2013-08-28 11:29:00,
2013-08-28 06:31:00,74.2,72.7,29.94,ESE,107,0.0,0.0,95,0.00,,,0.00,Wunderground v.1.15,2013-08-28 11:31:00,
2013-08-28 06:33:00,74.2,72.7,29.94,ESE,107,0.0,0.0,95,0.00,,,0.00,Wunderground v.1.15,2013-08-28 11:33:00,
2013-08-28 06:34:00,74.2,72.7,29.94,ESE,107,0.0,0.0,95,0.00,,,0.00,Wunderground v.1.15,2013-08-28 11:34:00,
2013-08-28 06:39:00,74.4,72.9,29.94,ESE,107,0.0,2.0,95,0.00,,,0.00,Wunderground v.1.15,2013-08-28 11:39:00,
2013-08-28 06:41:00,74.4,72.9,29.94,ESE,107,0.0,0.0,95,0.00,,,0.00,Wunderground v.1.15,2013-08-28 11:41:00,
2013-08-28 06:46:00,74.4,72.9,29.94,ESE,107,0.0,0.0,95,0.00,,,0.00,Wunderground v.1.15,2013-08-28 11:46:00,
2013-08-28 06:47:00,74.4,72.9,29.94,ESE,107,0.0,0.0,95,0.00,,,0.00,Wunderground v.1.15,2013-08-28 11:47:00,
2013-08-28 06:48:00,74.4,72.9,29.94,ESE,107,0.0,0.0,95,0.00,,,0.00,Wunderground v.1.15,2013-08-28 11:48:00,
2013-08-28 06:49:00,74.4,72.9,29.94,ESE,107,0.0,0.0,95,0.00,,,0.00,Wunderground v.1.15,2013-08-28 11:49:00,
2013-08-28 06:51:00,74.4,72.9,29.94,ESE,107,0.0,0.0,95,0.00,,,0.00,Wunderground v.1.15,2013-08-28 11:51:00,
2013-08-28 06:53:00,74.4,73.2,29.94,ESE,107,0.0,0.0,96,0.00,,,0.00,Wunderground v.1.15,2013-08-28 11:53:00,
2013-08-28 06:56:00,74.4,73.2,29.94,ESE,107,0.0,0.0,96,0.00,,,0.00,Wunderground v.1.15,2013-08-28 11:56:00,
2013-08-28 06:57:00,74.4,73.2,29.94,ESE,107,0.0,0.0,96,0.00,,,0.00,Wunderground v.1.15,2013-08-28 11:57:00,
2013-08-28 06:59:00,74.4,73.2,29.94,ESE,107,0.0,0.0,96,0.00,,,0.00,Wunderground v.1.15,2013-08-28 11:59:00,
2013-08-28 07:01:00,74.4,73.2,29.94,ESE,107,0.0,0.0,96,0.00,,,0.00,Wunderground v.1.15,2013-08-28 12:01:00,
2013-08-28 07:02:00,74.4,73.2,29.95,ESE,107,0.0,0.0,96,0.00,,,0.00,Wunderground v.1.15,2013-08-28 12:02:00,
2013-08-28 07:06:00,74.4,73.2,29.95,ESE,107,0.0,0.0,96,0.00,,,0.00,Wunderground v.1.15,2013-08-28 12:06:00,
2013-08-28 07:07:00,74.4,73.2,29.95,ESE,107,0.0,0.0,96,0.00,,,0.00,Wunderground v.1.15,2013-08-28 12:07:00,
2013-08-28 07:11:00,74.4,73.2,29.95,ESE,107,0.0,0.0,96,0.00,,,0.00,Wunderground v.1.15,2013-08-28 12:11:00,
2013-08-28 07:12:00,74.4,73.2,29.95,ESE,107,0.0,0.0,96,0.00,,,0.00,Wunderground v.1.15,2013-08-28 12:12:00,
2013-08-28 07:14:00,74.2,73.0,29.95,ESE,107,0.0,0.0,96,0.00,,,0.00,Wunderground v.1.15,2013-08-28 12:14:00,
2013-08-28 07:16:00,74.2,73.0,29.95,ESE,107,0.0,0.0,96,0.00,,,0.00,Wunderground v.1.15,2013-08-28 12:16:00,
2013-08-28 07:22:00,74.2,73.0,29.96,ESE,107,0.0,0.0,96,0.00,,,0.00,Wunderground v.1.15,2013-08-28 12:22:00,
2013-08-28 07:24:00,74.2,73.0,29.96,ESE,107,0.0,0.0,96,0.00,,,0.00,Wunderground v.1.15,2013-08-28 12:24:00,
2013-08-28 07:26:00,74.2,73.0,29.96,ESE,107,0.0,0.0,96,0.00,,,0.00,Wunderground v.1.15,2013-08-28 12:26:00,
2013-08-28 07:27:00,74.2,73.0,29.96,ESE,107,0.0,0.0,96,0.00,,,0.00,Wunderground v.1.15,2013-08-28 12:27:00,
2013-08-28 07:29:00,74.0,72.8,29.96,ESE,107,0.0,0.0,96,0.00,,,0.00,Wunderground v.1.15,2013-08-28 12:29:00,
2013-08-28 07:32:00,74.0,72.8,29.96,ESE,107,0.0,0.0,96,0.00,,,0.00,Wunderground v.1.15,2013-08-28 12:32:00,
2013-08-28 07:33:00,74.0,72.8,29.96,ESE,107,0.0,0.0,96,0.00,,,0.00,Wunderground v.1.15,2013-08-28 12:33:00,
2013-08-28 07:35:00,74.0,72.8,29.96,ESE,107,0.0,0.0,96,0.00,,,0.00,Wunderground v.1.15,2013-08-28 12:35:00,
2013-08-28 07:38:00,74.0,72.8,29.96,ESE,107,0.0,0.0,96,0.00,,,0.00,Wunderground v.1.15,2013-08-28 12:38:00,
2013-08-28 07:41:00,74.2,73.0,29.96,ESE,107,0.0,0.0,96,0.00,,,0.00,Wunderground v.1.15,2013-08-28 12:41:00,
2013-08-28 07:42:00,74.2,73.0,29.96,ESE,107,0.0,0.0,96,0.00,,,0.00,Wunderground v.1.15,2013-08-28 12:42:00,
2013-08-28 07:43:00,74.2,73.0,29.96,ESE,107,0.0,0.0,96,0.00,,,0.00,Wunderground v.1.15,2013-08-28 12:43:00,
2013-08-28 07:46:00,74.4,73.2,29.96,ESE,107,0.0,0.0,96,0.00,,,0.00,Wunderground v.1.15,2013-08-28 12:46:00,
2013-08-28 07:48:00,74.4,73.2,29.96,ESE,107,0.0,0.0,96,0.00,,,0.00,Wunderground v.1.15,2013-08-28 12:48:00,
2013-08-28 07:49:00,74.4,73.2,29.96,ESE,107,0.0,0.0,96,0.00,,,0.00,Wunderground v.1.15,2013-08-28 12:49:00,
2013-08-28 07:51:00,74.4,73.2,29.96,ESE,107,0.0,0.0,96,0.00,,,0.00,Wunderground v.1.15,2013-08-28 12:51:00,
2013-08-28 07:53:00,74.6,73.4,29.96,ESE,107,0.0,0.0,96,0.00,,,0.00,Wunderground v.1.15,2013-08-28 12:53:00,
2013-08-28 07:55:00,74.6,73.4,29.96,ESE,107,0.0,0.0,96,0.00,,,0.00,Wunderground v.1.15,2013-08-28 12:55:00,
2013-08-28 07:56:00,74.6,73.4,29.96,ESE,107,0.0,0.0,96,0.00,,,0.00,Wunderground v.1.15,2013-08-28 12:56:00,
2013-08-28 07:58:00,74.6,73.4,29.96,ESE,107,0.0,0.0,96,0.00,,,0.00,Wunderground v.1.15,2013-08-28 12:58:00,
2013-08-28 08:01:00,74.7,73.5,29.96,ESE,107,0.0,0.0,96,0.00,,,0.00,Wunderground v.1.15,2013-08-28 13:01:00,
2013-08-28 08:02:00,74.7,73.5,29.97,ESE,107,0.0,0.0,96,0.00,,,0.00,Wunderground v.1.15,2013-08-28 13:02:00,
2013-08-28 08:03:00,74.7,73.5,29.97,ESE,107,0.0,0.0,96,0.00,,,0.00,Wunderground v.1.15,2013-08-28 13:03:00,
2013-08-28 08:07:00,74.9,73.7,29.97,ESE,107,0.0,0.0,96,0.00,,,0.00,Wunderground v.1.15,2013-08-28 13:07:00,
2013-08-28 08:09:00,74.9,73.7,29.97,ESE,107,0.0,0.0,96,0.00,,,0.00,Wunderground v.1.15,2013-08-28 13:09:00,
2013-08-28 08:11:00,75.1,73.9,29.97,ESE,107,0.0,0.0,96,0.00,,,0.00,Wunderground v.1.15,2013-08-28 13:11:00,
2013-08-28 08:14:00,75.3,74.1,29.97,ESE,107,0.0,0.0,96,0.00,,,0.00,Wunderground v.1.15,2013-08-28 13:14:00,
2013-08-28 08:16:00,75.3,74.1,29.97,ESE,107,0.0,0.0,96,0.00,,,0.00,Wunderground v.1.15,2013-08-28 13:16:00,
2013-08-28 08:17:00,75.3,74.1,29.97,ESE,107,0.0,0.0,96,0.00,,,0.00,Wunderground v.1.15,2013-08-28 13:17:00,
2013-08-28 08:19:00,75.4,74.2,29.97,ESE,107,0.0,0.0,96,0.00,,,0.00,Wunderground v.1.15,2013-08-28 13:19:00,
2013-08-28 08:21:00,75.4,74.2,29.97,ESE,107,0.0,0.0,96,0.00,,,0.00,Wunderground v.1.15,2013-08-28 13:21:00,
2013-08-28 08:22:00,75.6,74.4,29.97,ESE,107,0.0,0.0,96,0.00,,,0.00,Wunderground v.1.15,2013-08-28 13:22:00,
2013-08-28 08:23:00,75.6,74.4,29.97,ESE,107,0.0,0.0,96,0.00,,,0.00,Wunderground v.1.15,2013-08-28 13:23:00,
2013-08-28 08:24:00,75.6,74.4,29.97,ESE,107,0.0,0.0,96,0.00,,,0.00,Wunderground v.1.15,2013-08-28 13:24:00,
2013-08-28 08:28:00,75.8,74.3,29.97,ESE,107,0.0,0.0,95,0.00,,,0.00,Wunderground v.1.15,2013-08-28 13:28:00,
2013-08-28 08:31:00,76.0,74.5,29.97,ESE,107,0.0,0.0,95,0.00,,,0.00,Wunderground v.1.15,2013-08-28 13:31:00,
2013-08-28 08:32:00,76.0,74.5,29.98,ESE,107,0.0,1.0,95,0.00,,,0.00,Wunderground v.1.15,2013-08-28 13:32:00,
2013-08-28 08:33:00,76.0,74.5,29.98,ESE,107,0.0,2.0,95,0.00,,,0.00,Wunderground v.1.15,2013-08-28 13:33:00,
2013-08-28 08:35:00,76.0,74.5,29.98,SSE,168,0.0,3.0,95,0.00,,,0.00,Wunderground v.1.15,2013-08-28 13:35:00,
2013-08-28 08:37:00,75.8,74.3,29.98,South,175,1.0,3.0,95,0.00,,,0.00,Wunderground v.1.15,2013-08-28 13:37:00,
2013-08-28 08:38:00,76.0,74.5,29.98,South,175,1.0,3.0,95,0.00,,,0.00,Wunderground v.1.15,2013-08-28 13:38:00,
2013-08-28 08:41:00,76.1,74.6,29.98,South,175,1.0,1.0,95,0.00,,,0.00,Wunderground v.1.15,2013-08-28 13:41:00,
2013-08-28 08:43:00,76.3,74.4,29.98,South,176,1.0,1.0,94,0.00,,,0.00,Wunderground v.1.15,2013-08-28 13:43:00,
2013-08-28 08:47:00,76.1,73.9,29.98,SW,217,1.0,5.0,93,0.00,,,0.00,Wunderground v.1.15,2013-08-28 13:47:00,
2013-08-28 08:48:00,76.1,73.9,29.98,SW,217,2.0,5.0,93,0.00,,,0.00,Wunderground v.1.15,2013-08-28 13:48:00,
2013-08-28 08:52:00,76.1,73.6,29.98,WSW,241,3.0,3.0,92,0.00,,,0.00,Wunderground v.1.15,2013-08-28 13:52:00,
2013-08-28 08:53:00,76.0,73.5,29.98,WSW,241,3.0,4.0,92,0.00,,,0.00,Wunderground v.1.15,2013-08-28 13:53:00,
2013-08-28 08:55:00,76.0,73.2,29.98,WSW,241,3.0,4.0,91,0.00,,,0.00,Wunderground v.1.15,2013-08-28 13:55:00,
2013-08-28 08:56:00,76.0,73.2,29.98,WSW,241,3.0,4.0,91,0.00,,,0.00,Wunderground v.1.15,2013-08-28 13:56:00,
2013-08-28 08:59:00,76.1,73.3,29.98,WSW,244,2.0,4.0,91,0.00,,,0.00,Wunderground v.1.15,2013-08-28 13:59:00,
2013-08-28 09:01:00,76.1,73.3,29.98,WSW,244,2.0,3.0,91,0.00,,,0.00,Wunderground v.1.15,2013-08-28 14:01:00,
2013-08-28 09:03:00,76.3,73.5,29.98,WSW,244,2.0,3.0,91,0.00,,,0.00,Wunderground v.1.15,2013-08-28 14:03:00,
2013-08-28 09:04:00,76.3,73.5,29.98,WSW,244,1.0,3.0,91,0.00,,,0.00,Wunderground v.1.15,2013-08-28 14:04:00,
2013-08-28 09:05:00,76.3,73.1,29.98,WSW,244,1.0,3.0,90,0.00,,,0.00,Wunderground v.1.15,2013-08-28 14:05:00,
2013-08-28 09:11:00,76.5,73.0,29.98,SW,226,2.0,2.0,89,0.00,,,0.00,Wunderground v.1.15,2013-08-28 14:11:00,
2013-08-28 09:12:00,76.5,73.0,29.98,SW,226,2.0,2.0,89,0.00,,,0.00,Wunderground v.1.15,2013-08-28 14:12:00,
2013-08-28 09:13:00,76.5,73.0,29.98,SW,226,2.0,2.0,89,0.00,,,0.00,Wunderground v.1.15,2013-08-28 14:13:00,
2013-08-28 09:15:00,76.7,73.2,29.98,SW,226,2.0,2.0,89,0.00,,,0.00,Wunderground v.1.15,2013-08-28 14:15:00,
2013-08-28 09:17:00,76.7,72.9,29.99,SW,234,2.0,2.0,88,0.00,,,0.00,Wunderground v.1.15,2013-08-28 14:17:00,
2013-08-28 09:19:00,76.7,72.5,29.99,SW,234,2.0,3.0,87,0.00,,,0.00,Wunderground v.1.15,2013-08-28 14:19:00,
2013-08-28 09:23:00,76.8,72.3,29.99,SW,234,2.0,3.0,86,0.00,,,0.00,Wunderground v.1.15,2013-08-28 14:23:00,
2013-08-28 09:24:00,76.8,72.3,29.99,SW,234,2.0,3.0,86,0.00,,,0.00,Wunderground v.1.15,2013-08-28 14:24:00,
2013-08-28 09:27:00,77.0,72.5,29.99,SW,234,2.0,3.0,86,0.00,,,0.00,Wunderground v.1.15,2013-08-28 14:27:00,
2013-08-28 09:28:00,77.0,72.5,29.99,SW,234,2.0,3.0,86,0.00,,,0.00,Wunderground v.1.15,2013-08-28 14:28:00,
2013-08-28 09:29:00,77.0,72.5,29.99,SW,234,2.0,3.0,86,0.00,,,0.00,Wunderground v.1.15,2013-08-28 14:29:00,
2013-08-28 09:31:00,77.0,72.1,29.99,SW,230,2.0,5.0,85,0.00,,,0.00,Wunderground v.1.15,2013-08-28 14:31:00,
2013-08-28 09:33:00,77.2,72.3,29.99,SW,232,2.0,5.0,85,0.00,,,0.00,Wunderground v.1.15,2013-08-28 14:33:00,
2013-08-28 09:34:00,77.2,72.0,29.99,SW,233,2.0,5.0,84,0.00,,,0.00,Wunderground v.1.15,2013-08-28 14:34:00,
2013-08-28 09:35:00,77.2,72.0,29.99,SW,233,2.0,5.0,84,0.00,,,0.00,Wunderground v.1.15,2013-08-28 14:35:00,
2013-08-28 09:38:00,77.4,72.2,29.99,SW,232,1.0,5.0,84,0.00,,,0.00,Wunderground v.1.15,2013-08-28 14:38:00,
2013-08-28 09:39:00,77.4,71.8,29.99,SW,232,1.0,5.0,83,0.00,,,0.00,Wunderground v.1.15,2013-08-28 14:39:00,
2013-08-28 09:41:00,77.6,72.0,29.99,SW,232,1.0,1.0,83,0.00,,,0.00,Wunderground v.1.15,2013-08-28 14:41:00,
2013-08-28 09:43:00,77.7,72.1,29.99,SW,232,1.0,1.0,83,0.00,,,0.00,Wunderground v.1.15,2013-08-28 14:43:00,
2013-08-28 09:44:00,77.7,72.1,29.99,SW,232,1.0,1.0,83,0.00,,,0.00,Wunderground v.1.15,2013-08-28 14:44:00,
2013-08-28 09:48:00,77.9,72.0,29.99,SW,230,1.0,5.0,82,0.00,,,0.00,Wunderground v.1.15,2013-08-28 14:48:00,
2013-08-28 09:49:00,77.9,71.6,29.99,SW,230,1.0,5.0,81,0.00,,,0.00,Wunderground v.1.15,2013-08-28 14:49:00,
2013-08-28 09:51:00,78.1,71.8,29.99,SW,230,1.0,3.0,81,0.00,,,0.00,Wunderground v.1.15,2013-08-28 14:51:00,
2013-08-28 09:53:00,78.1,71.4,29.99,SW,230,2.0,3.0,80,0.00,,,0.00,Wunderground v.1.15,2013-08-28 14:53:00,
2013-08-28 09:54:00,78.1,71.4,29.99,SW,230,2.0,3.0,80,0.00,,,0.00,Wunderground v.1.15,2013-08-28 14:54:00,
2013-08-28 09:55:00,78.1,71.4,29.99,SW,230,2.0,3.0,80,0.00,,,0.00,Wunderground v.1.15,2013-08-28 14:55:00,
2013-08-28 09:57:00,78.3,71.6,29.99,SW,230,2.0,3.0,80,0.00,,,0.00,Wunderground v.1.15,2013-08-28 14:57:00,
2013-08-28 09:58:00,78.3,71.6,29.99,SW,230,1.0,3.0,80,0.00,,,0.00,Wunderground v.1.15,2013-08-28 14:58:00,
2013-08-28 10:01:00,78.5,71.4,29.99,SW,230,1.0,1.0,79,0.00,,,0.00,Wunderground v.1.15,2013-08-28 15:01:00,
2013-08-28 10:04:00,78.6,71.5,29.99,SW,230,0.0,4.0,79,0.00,,,0.00,Wunderground v.1.15,2013-08-28 15:04:00,
2013-08-28 10:05:00,78.8,71.7,29.99,SW,230,1.0,4.0,79,0.00,,,0.00,Wunderground v.1.15,2013-08-28 15:05:00,
2013-08-28 10:07:00,78.8,71.4,29.99,SW,230,1.0,4.0,78,0.00,,,0.00,Wunderground v.1.15,2013-08-28 15:07:00,
2013-08-28 10:08:00,78.8,71.0,29.99,SW,230,1.0,4.0,77,0.00,,,0.00,Wunderground v.1.15,2013-08-28 15:08:00,
2013-08-28 10:11:00,79.4,71.6,29.99,SW,215,2.0,6.0,77,0.00,,,0.00,Wunderground v.1.15,2013-08-28 15:11:00,
2013-08-28 10:12:00,79.4,71.2,29.99,SW,219,2.0,7.0,76,0.00,,,0.00,Wunderground v.1.15,2013-08-28 15:12:00,
2013-08-28 10:13:00,79.6,71.0,29.99,SW,219,3.0,7.0,75,0.00,,,0.00,Wunderground v.1.15,2013-08-28 15:13:00,
2013-08-28 10:17:00,79.9,71.3,30.00,SW,226,3.0,7.0,75,0.00,,,0.00,Wunderground v.1.15,2013-08-28 15:17:00,
2013-08-28 10:18:00,79.9,70.9,30.00,SW,224,3.0,7.0,74,0.00,,,0.00,Wunderground v.1.15,2013-08-28 15:18:00,
2013-08-28 10:21:00,79.9,70.1,30.00,SW,222,3.0,3.0,72,0.00,,,0.00,Wunderground v.1.15,2013-08-28 15:21:00,
2013-08-28 10:23:00,80.1,70.3,30.00,SW,220,2.0,3.0,72,0.00,,,0.00,Wunderground v.1.15,2013-08-28 15:23:00,
2013-08-28 10:24:00,80.3,70.4,30.00,SW,219,2.0,3.0,72,0.00,,,0.00,Wunderground v.1.15,2013-08-28 15:24:00,
2013-08-28 10:26:00,80.5,70.6,30.00,SW,219,2.0,3.0,72,0.00,,,0.00,Wunderground v.1.15,2013-08-28 15:26:00,
2013-08-28 10:27:00,80.7,70.8,30.00,SW,219,1.0,3.0,72,0.00,,,0.00,Wunderground v.1.15,2013-08-28 15:27:00,
2013-08-28 10:31:00,80.7,70.4,30.00,SW,220,1.0,1.0,71,0.00,,,0.00,Wunderground v.1.15,2013-08-28 15:31:00,
2013-08-28 10:32:00,80.9,70.2,30.00,SW,220,1.0,1.0,70,0.00,,,0.00,Wunderground v.1.15,2013-08-28 15:32:00,
2013-08-28 10:33:00,81.1,70.8,30.00,SW,220,1.0,1.0,71,0.00,,,0.00,Wunderground v.1.15,2013-08-28 15:33:00,
2013-08-28 10:35:00,81.4,70.2,30.00,South,179,1.0,6.0,69,0.00,,,0.00,Wunderground v.1.15,2013-08-28 15:35:00,
2013-08-28 10:37:00,81.8,70.6,30.00,South,178,1.0,6.0,69,0.00,,,0.00,Wunderground v.1.15,2013-08-28 15:37:00,
2013-08-28 10:38:00,82.0,70.8,30.00,South,176,1.0,6.0,69,0.00,,,0.00,Wunderground v.1.15,2013-08-28 15:38:00,
2013-08-28 10:41:00,82.4,70.3,30.00,South,176,2.0,2.0,67,0.00,,,0.00,Wunderground v.1.15,2013-08-28 15:41:00,
2013-08-28 10:43:00,82.6,70.5,30.00,South,176,2.0,4.0,67,0.00,,,0.00,Wunderground v.1.15,2013-08-28 15:43:00,
2013-08-28 10:44:00,82.6,70.1,30.00,SSW,199,2.0,6.0,66,0.00,,,0.00,Wunderground v.1.15,2013-08-28 15:44:00,
2013-08-28 10:47:00,82.8,69.8,30.00,SW,215,2.0,7.0,65,0.00,,,0.00,Wunderground v.1.15,2013-08-28 15:47:00,
2013-08-28 10:48:00,82.8,69.8,30.00,SW,215,2.0,7.0,65,0.00,,,0.00,Wunderground v.1.15,2013-08-28 15:48:00,
2013-08-28 10:49:00,83.0,70.0,30.00,SW,215,2.0,7.0,65,0.00,,,0.00,Wunderground v.1.15,2013-08-28 15:49:00,
2013-08-28 10:53:00,83.8,70.8,30.00,South,189,2.0,4.0,65,0.00,,,0.00,Wunderground v.1.15,2013-08-28 15:53:00,
2013-08-28 10:54:00,83.8,70.8,30.00,South,189,2.0,4.0,65,0.00,,,0.00,Wunderground v.1.15,2013-08-28 15:54:00,
2013-08-28 10:55:00,83.8,70.3,30.00,SSW,205,2.0,4.0,64,0.00,,,0.00,Wunderground v.1.15,2013-08-28 15:55:00,
2013-08-28 10:57:00,83.6,70.6,30.00,SSW,206,2.0,4.0,65,0.00,,,0.00,Wunderground v.1.15,2013-08-28 15:57:00,
2013-08-28 10:59:00,83.6,70.1,30.00,South,189,2.0,4.0,64,0.00,,,0.00,Wunderground v.1.15,2013-08-28 15:59:00,
2013-08-28 11:01:00,83.8,70.8,30.00,South,189,2.0,2.0,65,0.00,,,0.00,Wunderground v.1.15,2013-08-28 16:01:00,
2013-08-28 11:03:00,84.0,70.5,30.00,SW,229,2.0,3.0,64,0.00,,,0.00,Wunderground v.1.15,2013-08-28 16:03:00,
2013-08-28 11:04:00,84.0,70.5,30.00,SW,229,2.0,3.0,64,0.00,,,0.00,Wunderground v.1.15,2013-08-28 16:04:00,
2013-08-28 11:06:00,84.1,70.1,30.00,SW,229,1.0,3.0,63,0.00,,,0.00,Wunderground v.1.15,2013-08-28 16:06:00,
2013-08-28 11:09:00,84.5,70.5,30.00,SW,229,1.0,3.0,63,0.00,,,0.00,Wunderground v.1.15,2013-08-28 16:09:00,
2013-08-28 11:11:00,84.7,70.2,30.00,SSE,147,1.0,1.0,62,0.00,,,0.00,Wunderground v.1.15,2013-08-28 16:11:00,
2013-08-28 11:14:00,85.1,70.6,30.00,SSE,162,0.0,1.0,62,0.00,,,0.00,Wunderground v.1.15,2013-08-28 16:14:00,
2013-08-28 11:15:00,85.3,70.3,30.00,SSE,162,0.0,1.0,61,0.00,,,0.00,Wunderground v.1.15,2013-08-28 16:15:00,
2013-08-28 11:17:00,85.5,70.5,30.00,SSE,162,0.0,1.0,61,0.00,,,0.00,Wunderground v.1.15,2013-08-28 16:17:00,
2013-08-28 11:19:00,85.9,70.9,30.00,SSE,162,0.0,2.0,61,0.00,,,0.00,Wunderground v.1.15,2013-08-28 16:19:00,
2013-08-28 11:21:00,85.9,69.9,30.00,ESE,104,1.0,2.0,59,0.00,,,0.00,Wunderground v.1.15,2013-08-28 16:21:00,
2013-08-28 11:22:00,86.1,70.6,30.00,ESE,110,1.0,2.0,60,0.00,,,0.00,Wunderground v.1.15,2013-08-28 16:22:00,
2013-08-28 11:23:00,86.1,70.1,30.00,SW,232,1.0,3.0,59,0.00,,,0.00,Wunderground v.1.15,2013-08-28 16:23:00,
2013-08-28 11:24:00,86.3,69.8,30.00,SW,233,1.0,3.0,58,0.00,,,0.00,Wunderground v.1.15,2013-08-28 16:24:00,
2013-08-28 11:26:00,86.7,70.2,30.00,SW,233,1.0,3.0,58,0.00,,,0.00,Wunderground v.1.15,2013-08-28 16:26:00,
2013-08-28 11:28:00,86.7,69.1,30.00,South,185,1.0,3.0,56,0.00,,,0.00,Wunderground v.1.15,2013-08-28 16:28:00,
2013-08-28 11:29:00,86.7,69.1,30.00,SE,140,1.0,3.0,56,0.00,,,0.00,Wunderground v.1.15,2013-08-28 16:29:00,
2013-08-28 11:31:00,86.5,68.9,30.00,SE,140,1.0,1.0,56,0.00,,,0.00,Wunderground v.1.15,2013-08-28 16:31:00,
2013-08-28 11:32:00,86.5,70.0,30.00,SSE,150,1.0,1.0,58,0.00,,,0.00,Wunderground v.1.15,2013-08-28 16:32:00,
2013-08-28 11:34:00,86.5,69.5,30.00,SSW,199,1.0,8.0,57,0.00,,,0.00,Wunderground v.1.15,2013-08-28 16:34:00,
2013-08-28 11:35:00,86.5,68.9,30.00,South,176,2.0,8.0,56,0.00,,,0.00,Wunderground v.1.15,2013-08-28 16:35:00,
2013-08-28 11:36:00,86.5,68.4,30.00,SSE,155,2.0,8.0,55,0.00,,,0.00,Wunderground v.1.15,2013-08-28 16:36:00,
2013-08-28 11:39:00,86.1,68.6,30.00,SSE,150,3.0,8.0,56,0.00,,,0.00,Wunderground v.1.15,2013-08-28 16:39:00,
2013-08-28 11:41:00,85.7,68.7,30.00,SSE,151,4.0,4.0,57,0.00,,,0.00,Wunderground v.1.15,2013-08-28 16:41:00,
2013-08-28 11:43:00,85.7,68.2,30.00,SSE,155,3.0,4.0,56,0.00,,,0.00,Wunderground v.1.15,2013-08-28 16:43:00,
2013-08-28 11:44:00,85.9,68.4,30.00,South,191,3.0,4.0,56,0.00,,,0.00,Wunderground v.1.15,2013-08-28 16:44:00,
2013-08-28 11:45:00,85.9,68.4,30.00,South,191,2.0,4.0,56,0.00,,,0.00,Wunderground v.1.15,2013-08-28 16:45:00,
2013-08-28 11:48:00,86.3,69.3,30.00,South,191,2.0,4.0,57,0.00,,,0.00,Wunderground v.1.15,2013-08-28 16:48:00,
2013-08-28 11:52:00,86.5,68.9,30.00,West,260,2.0,9.0,56,0.00,,,0.00,Wunderground v.1.15,2013-08-28 16:52:00,
2013-08-28 11:53:00,86.5,68.9,30.00,West,280,2.0,9.0,56,0.00,,,0.00,Wunderground v.1.15,2013-08-28 16:53:00,
2013-08-28 11:54:00,86.3,68.8,30.00,WNW,292,3.0,9.0,56,0.00,,,0.00,Wunderground v.1.15,2013-08-28 16:54:00,
2013-08-28 11:57:00,86.3,69.3,30.00,SSW,210,3.0,9.0,57,0.00,,,0.00,Wunderground v.1.15,2013-08-28 16:57:00,
2013-08-28 11:58:00,86.3,69.3,30.00,SW,216,4.0,9.0,57,0.00,,,0.00,Wunderground v.1.15,2013-08-28 16:58:00,
2013-08-28 11:59:00,86.3,69.3,30.00,SW,215,4.0,9.0,57,0.00,,,0.00,Wunderground v.1.15,2013-08-28 16:59:00,
2013-08-28 12:02:00,86.3,69.3,29.99,SW,216,3.0,3.0,57,0.00,,,0.00,Wunderground v.1.15,2013-08-28 17:02:00,
2013-08-28 12:05:00,86.7,69.1,29.99,SSW,208,2.0,3.0,56,0.00,,,0.00,Wunderground v.1.15,2013-08-28 17:05:00,
2013-08-28 12:07:00,87.0,69.4,29.99,SSW,206,1.0,3.0,56,0.00,,,0.00,Wunderground v.1.15,2013-08-28 17:07:00,
2013-08-28 12:10:00,87.2,67.4,29.99,South,184,2.0,9.0,52,0.00,,,0.00,Wunderground v.1.15,2013-08-28 17:10:00,
2013-08-28 12:11:00,87.0,67.2,29.99,South,169,2.0,9.0,52,0.00,,,0.00,Wunderground v.1.15,2013-08-28 17:11:00,
2013-08-28 12:17:00,87.2,66.9,29.99,SSW,198,4.0,9.0,51,0.00,,,0.00,Wunderground v.1.15,2013-08-28 17:17:00,
2013-08-28 12:19:00,87.2,66.9,29.99,SSE,160,4.0,9.0,51,0.00,,,0.00,Wunderground v.1.15,2013-08-28 17:19:00,
2013-08-28 12:20:00,87.2,66.9,29.99,SW,215,4.0,9.0,51,0.00,,,0.00,Wunderground v.1.15,2013-08-28 17:20:00,
2013-08-28 12:21:00,87.2,67.4,29.99,SW,215,3.0,3.0,52,0.00,,,0.00,Wunderground v.1.15,2013-08-28 17:21:00,
2013-08-28 12:24:00,87.2,67.4,29.99,WSW,246,3.0,5.0,52,0.00,,,0.00,Wunderground v.1.15,2013-08-28 17:24:00,
2013-08-28 12:25:00,87.2,67.4,29.99,WSW,248,3.0,5.0,52,0.00,,,0.00,Wunderground v.1.15,2013-08-28 17:25:00,
2013-08-28 12:26:00,87.2,67.4,29.99,WSW,248,3.0,5.0,52,0.00,,,0.00,Wunderground v.1.15,2013-08-28 17:26:00,
2013-08-28 12:28:00,87.2,67.4,29.99,WSW,248,2.0,5.0,52,0.00,,,0.00,Wunderground v.1.15,2013-08-28 17:28:00,
2013-08-28 12:29:00,87.2,67.4,29.99,WSW,248,2.0,5.0,52,0.00,,,0.00,Wunderground v.1.15,2013-08-28 17:29:00,
2013-08-28 12:31:00,87.4,68.2,29.98,South,189,2.0,6.0,53,0.00,,,0.00,Wunderground v.1.15,2013-08-28 17:31:00,
2013-08-28 12:33:00,87.6,67.8,29.98,SSE,161,2.0,6.0,52,0.00,,,0.00,Wunderground v.1.15,2013-08-28 17:33:00,
2013-08-28 12:35:00,88.0,67.6,29.98,SSE,147,2.0,6.0,51,0.00,,,0.00,Wunderground v.1.15,2013-08-28 17:35:00,
2013-08-28 12:36:00,88.2,67.2,29.98,SSE,147,2.0,6.0,50,0.00,,,0.00,Wunderground v.1.15,2013-08-28 17:36:00,
2013-08-28 12:38:00,88.4,66.2,29.98,SSE,147,2.0,6.0,48,0.00,,,0.00,Wunderground v.1.15,2013-08-28 17:38:00,
2013-08-28 12:41:00,88.0,67.6,29.98,ESE,104,2.0,5.0,51,0.00,,,0.00,Wunderground v.1.15,2013-08-28 17:41:00,
2013-08-28 12:43:00,88.0,67.0,29.98,East,96,3.0,5.0,50,0.00,,,0.00,Wunderground v.1.15,2013-08-28 17:43:00,
2013-08-28 12:46:00,88.2,67.8,29.98,SE,143,3.0,10.0,51,0.00,,,0.00,Wunderground v.1.15,2013-08-28 17:46:00,
2013-08-28 12:48:00,88.2,66.6,29.98,SSW,192,3.0,10.0,49,0.00,,,0.00,Wunderground v.1.15,2013-08-28 17:48:00,
2013-08-28 12:49:00,88.4,67.4,29.98,SE,136,4.0,10.0,50,0.00,,,0.00,Wunderground v.1.15,2013-08-28 17:49:00,
2013-08-28 12:50:00,88.8,67.8,29.98,South,178,4.0,10.0,50,0.00,,,0.00,Wunderground v.1.15,2013-08-28 17:50:00,
2013-08-28 12:53:00,89.0,67.4,29.98,SE,133,4.0,7.0,49,0.00,,,0.00,Wunderground v.1.15,2013-08-28 17:53:00,
2013-08-28 12:54:00,88.8,66.6,29.98,SSE,150,4.0,7.0,48,0.00,,,0.00,Wunderground v.1.15,2013-08-28 17:54:00,
2013-08-28 12:55:00,88.6,66.4,29.98,SSE,155,4.0,7.0,48,0.00,,,0.00,Wunderground v.1.15,2013-08-28 17:55:00,
2013-08-28 12:58:00,88.8,66.0,29.98,ESE,116,4.0,7.0,47,0.00,,,0.00,Wunderground v.1.15,2013-08-28 17:58:00,
2013-08-28 13:00:00,88.8,66.6,29.98,SSW,192,4.0,4.0,48,0.00,,,0.00,Wunderground v.1.15,2013-08-28 18:00:00,
2013-08-28 13:01:00,89.0,66.8,29.97,South,178,4.0,4.0,48,0.00,,,0.00,Wunderground v.1.15,2013-08-28 18:01:00,
2013-08-28 13:04:00,89.3,66.4,29.97,SSE,164,3.0,4.0,47,0.00,,,0.00,Wunderground v.1.15,2013-08-28 18:04:00,
2013-08-28 13:05:00,89.3,66.4,29.97,SE,140,3.0,4.0,47,0.00,,,0.00,Wunderground v.1.15,2013-08-28 18:05:00,
2013-08-28 13:08:00,89.5,66.0,29.97,SSW,198,3.0,6.0,46,0.00,,,0.00,Wunderground v.1.15,2013-08-28 18:08:00,
2013-08-28 13:10:00,89.7,66.8,29.97,South,185,3.0,3.0,47,0.00,,,0.00,Wunderground v.1.15,2013-08-28 18:10:00,
2013-08-28 13:11:00,89.7,66.8,29.97,SE,136,4.0,6.0,47,0.00,,,0.00,Wunderground v.1.15,2013-08-28 18:11:00,
2013-08-28 13:15:00,89.7,67.4,29.97,SSW,195,4.0,11.0,48,0.00,,,0.00,Wunderground v.1.15,2013-08-28 18:15:00,
2013-08-28 13:16:00,89.7,67.4,29.97,South,178,4.0,11.0,48,0.00,,,0.00,Wunderground v.1.15,2013-08-28 18:16:00,
2013-08-28 13:21:00,89.9,67.6,29.97,SSW,192,4.0,8.0,48,0.00,,,0.00,Wunderground v.1.15,2013-08-28 18:21:00,
2013-08-28 13:22:00,89.9,66.3,29.97,ESE,116,4.0,8.0,46,0.00,,,0.00,Wunderground v.1.15,2013-08-28 18:22:00,
2013-08-28 13:23:00,89.7,66.2,29.97,ESE,116,4.0,8.0,46,0.00,,,0.00,Wunderground v.1.15,2013-08-28 18:23:00,
2013-08-28 13:26:00,89.9,67.0,29.97,ESE,116,2.0,8.0,47,0.00,,,0.00,Wunderground v.1.15,2013-08-28 18:26:00,
2013-08-28 13:27:00,89.9,67.0,29.97,SE,144,3.0,8.0,47,0.00,,,0.00,Wunderground v.1.15,2013-08-28 18:27:00,
2013-08-28 13:32:00,89.7,66.2,29.96,SE,133,3.0,7.0,46,0.00,,,0.00,Wunderground v.1.15,2013-08-28 18:32:00,
2013-08-28 13:34:00,89.7,67.4,29.96,SE,134,3.0,7.0,48,0.00,,,0.00,Wunderground v.1.15,2013-08-28 18:34:00,
2013-08-28 13:35:00,90.1,67.2,29.96,South,179,3.0,7.0,47,0.00,,,0.00,Wunderground v.1.15,2013-08-28 18:35:00,
2013-08-28 13:36:00,90.5,66.3,29.96,SE,145,4.0,7.0,45,0.00,,,0.00,Wunderground v.1.15,2013-08-28 18:36:00,
2013-08-28 13:37:00,90.5,66.3,29.96,SSE,168,4.0,7.0,45,0.00,,,0.00,Wunderground v.1.15,2013-08-28 18:37:00,
2013-08-28 13:39:00,90.3,66.7,29.96,SSE,165,4.0,7.0,46,0.00,,,0.00,Wunderground v.1.15,2013-08-28 18:39:00,
2013-08-28 13:40:00,90.3,66.7,29.96,SSE,150,4.0,4.0,46,0.00,,,0.00,Wunderground v.1.15,2013-08-28 18:40:00,
2013-08-28 13:42:00,90.5,66.9,29.96,SSW,199,3.0,8.0,46,0.00,,,0.00,Wunderground v.1.15,2013-08-28 18:42:00,
2013-08-28 13:43:00,90.5,66.9,29.96,SE,141,4.0,8.0,46,0.00,,,0.00,Wunderground v.1.15,2013-08-28 18:43:00,
2013-08-28 13:44:00,90.3,66.7,29.96,ESE,104,4.0,8.0,46,0.00,,,0.00,Wunderground v.1.15,2013-08-28 18:44:00,
2013-08-28 13:46:00,90.3,67.3,29.96,South,175,4.0,8.0,47,0.00,,,0.00,Wunderground v.1.15,2013-08-28 18:46:00,
2013-08-28 13:47:00,90.5,67.5,29.96,South,175,4.0,8.0,47,0.00,,,0.00,Wunderground v.1.15,2013-08-28 18:47:00,
2013-08-28 13:50:00,91.2,66.9,29.96,South,178,3.0,8.0,45,0.00,,,0.00,Wunderground v.1.15,2013-08-28 18:50:00,
2013-08-28 13:51:00,91.4,67.7,29.96,South,178,3.0,3.0,46,0.00,,,0.00,Wunderground v.1.15,2013-08-28 18:51:00,
2013-08-28 13:52:00,91.8,66.8,29.96,South,178,2.0,3.0,44,0.00,,,0.00,Wunderground v.1.15,2013-08-28 18:52:00,
2013-08-28 13:57:00,91.6,66.6,29.96,SSE,147,2.0,10.0,44,0.00,,,0.00,Wunderground v.1.15,2013-08-28 18:57:00,
2013-08-28 13:58:00,91.4,66.4,29.96,ESE,117,4.0,10.0,44,0.00,,,0.00,Wunderground v.1.15,2013-08-28 18:58:00,
2013-08-28 14:01:00,90.7,66.4,29.96,SE,145,5.0,5.0,45,0.00,,,0.00,Wunderground v.1.15,2013-08-28 19:01:00,
2013-08-28 14:02:00,90.7,66.4,29.95,SE,143,5.0,7.0,45,0.00,,,0.00,Wunderground v.1.15,2013-08-28 19:02:00,
2013-08-28 14:03:00,90.7,66.4,29.95,ESE,109,6.0,7.0,45,0.00,,,0.00,Wunderground v.1.15,2013-08-28 19:03:00,
2013-08-28 14:04:00,90.7,66.4,29.95,SSE,147,6.0,7.0,45,0.00,,,0.00,Wunderground v.1.15,2013-08-28 19:04:00,
2013-08-28 14:07:00,90.7,65.1,29.95,SE,138,6.0,9.0,43,0.00,,,0.00,Wunderground v.1.15,2013-08-28 19:07:00,
2013-08-28 14:11:00,90.7,66.4,29.95,ESE,120,3.0,5.0,45,0.00,,,0.00,Wunderground v.1.15,2013-08-28 19:11:00,
2013-08-28 14:13:00,91.2,65.6,29.95,ESE,112,3.0,5.0,43,0.00,,,0.00,Wunderground v.1.15,2013-08-28 19:13:00,
2013-08-28 14:16:00,91.4,65.1,29.95,ESE,121,3.0,5.0,42,0.00,,,0.00,Wunderground v.1.15,2013-08-28 19:16:00,
2013-08-28 14:18:00,91.6,65.3,29.95,SE,144,3.0,5.0,42,0.00,,,0.00,Wunderground v.1.15,2013-08-28 19:18:00,
2013-08-28 14:20:00,91.8,65.4,29.95,SE,131,3.0,8.0,42,0.00,,,0.00,Wunderground v.1.15,2013-08-28 19:20:00,
2013-08-28 14:21:00,91.6,65.3,29.95,SE,124,3.0,8.0,42,0.00,,,0.00,Wunderground v.1.15,2013-08-28 19:21:00,
2013-08-28 14:22:00,91.4,65.8,29.95,ESE,120,3.0,8.0,43,0.00,,,0.00,Wunderground v.1.15,2013-08-28 19:22:00,
2013-08-28 14:23:00,91.2,65.6,29.95,ESE,120,3.0,8.0,43,0.00,,,0.00,Wunderground v.1.15,2013-08-28 19:23:00,
2013-08-28 14:26:00,90.7,65.1,29.95,East,89,2.0,8.0,43,0.00,,,0.00,Wunderground v.1.15,2013-08-28 19:26:00,
2013-08-28 14:28:00,90.7,65.8,29.95,South,176,3.0,8.0,44,0.00,,,0.00,Wunderground v.1.15,2013-08-28 19:28:00,
2013-08-28 14:30:00,91.0,65.4,29.95,ESE,120,3.0,3.0,43,0.00,,,0.00,Wunderground v.1.15,2013-08-28 19:30:00,
2013-08-28 14:31:00,90.7,64.5,29.95,ESE,121,3.0,6.0,42,0.00,,,0.00,Wunderground v.1.15,2013-08-28 19:31:00,
2013-08-28 14:33:00,91.0,64.7,29.93,ESE,117,3.0,6.0,42,0.00,,,0.00,Wunderground v.1.15,2013-08-28 19:33:00,
2013-08-28 14:35:00,91.4,65.8,29.93,SSE,154,3.0,10.0,43,0.00,,,0.00,Wunderground v.1.15,2013-08-28 19:35:00,
2013-08-28 14:37:00,91.4,65.8,29.93,SSE,165,3.0,10.0,43,0.00,,,0.00,Wunderground v.1.15,2013-08-28 19:37:00,
2013-08-28 14:40:00,91.8,65.4,29.93,SE,128,5.0,5.0,42,0.00,,,0.00,Wunderground v.1.15,2013-08-28 19:40:00,
2013-08-28 14:41:00,91.6,65.3,29.93,SE,126,5.0,5.0,42,0.00,,,0.00,Wunderground v.1.15,2013-08-28 19:41:00,
2013-08-28 14:44:00,91.6,65.3,29.93,SSW,206,5.0,6.0,42,0.00,,,0.00,Wunderground v.1.15,2013-08-28 19:44:00,
2013-08-28 14:47:00,91.4,65.1,29.93,SE,128,5.0,6.0,42,0.00,,,0.00,Wunderground v.1.15,2013-08-28 19:47:00,
2013-08-28 14:48:00,91.6,65.9,29.93,SW,224,5.0,6.0,43,0.00,,,0.00,Wunderground v.1.15,2013-08-28 19:48:00,
2013-08-28 14:50:00,92.1,65.0,29.93,WSW,246,4.0,6.0,41,0.00,,,0.00,Wunderground v.1.15,2013-08-28 19:50:00,
2013-08-28 14:51:00,92.1,65.0,29.93,SW,223,4.0,4.0,41,0.00,,,0.00,Wunderground v.1.15,2013-08-28 19:51:00,
2013-08-28 14:52:00,92.3,65.2,29.93,SSE,150,3.0,11.0,41,0.00,,,0.00,Wunderground v.1.15,2013-08-28 19:52:00,
2013-08-28 14:55:00,91.8,64.0,29.93,South,178,4.0,11.0,40,0.00,,,0.00,Wunderground v.1.15,2013-08-28 19:55:00,
2013-08-28 14:56:00,92.1,64.3,29.93,SE,143,4.0,11.0,40,0.00,,,0.00,Wunderground v.1.15,2013-08-28 19:56:00,
2013-08-28 14:58:00,91.8,64.0,29.93,ESE,117,4.0,11.0,40,0.00,,,0.00,Wunderground v.1.15,2013-08-28 19:58:00,
2013-08-28 15:00:00,91.8,62.6,29.93,SSW,196,4.0,8.0,38,0.00,,,0.00,Wunderground v.1.15,2013-08-28 20:00:00,
2013-08-28 15:01:00,92.1,63.6,29.93,SE,126,4.0,8.0,39,0.00,,,0.00,Wunderground v.1.15,2013-08-28 20:01:00,
2013-08-28 15:02:00,92.3,63.0,29.93,SSE,148,5.0,8.0,38,0.00,,,0.00,Wunderground v.1.15,2013-08-28 20:02:00,
2013-08-28 15:03:00,92.3,63.8,29.93,SSE,167,4.0,8.0,39,0.00,,,0.00,Wunderground v.1.15,2013-08-28 20:03:00,
2013-08-28 15:05:00,92.3,61.5,29.93,WSW,241,4.0,8.0,36,0.00,,,0.00,Wunderground v.1.15,2013-08-28 20:05:00,
2013-08-28 15:07:00,92.5,63.2,29.93,SSE,158,4.0,8.0,38,0.00,,,0.00,Wunderground v.1.15,2013-08-28 20:07:00,
2013-08-28 15:10:00,92.7,64.1,29.93,SSE,148,5.0,5.0,39,0.00,,,0.00,Wunderground v.1.15,2013-08-28 20:10:00,
2013-08-28 15:11:00,92.9,63.6,29.93,SW,230,4.0,5.0,38,0.00,,,0.00,Wunderground v.1.15,2013-08-28 20:11:00,
2013-08-28 15:12:00,93.2,63.1,29.93,SE,144,4.0,5.0,37,0.00,,,0.00,Wunderground v.1.15,2013-08-28 20:12:00,
2013-08-28 15:13:00,93.4,64.0,29.93,SSW,192,4.0,5.0,38,0.00,,,0.00,Wunderground v.1.15,2013-08-28 20:13:00,
2013-08-28 15:16:00,93.6,64.9,29.93,SE,136,4.0,5.0,39,0.00,,,0.00,Wunderground v.1.15,2013-08-28 20:16:00,
2013-08-28 15:18:00,93.6,65.6,29.92,ESE,110,4.0,6.0,40,0.00,,,0.00,Wunderground v.1.15,2013-08-28 20:18:00,
2013-08-28 15:21:00,93.2,65.3,29.92,ENE,78,4.0,5.0,40,0.00,,,0.00,Wunderground v.1.15,2013-08-28 20:21:00,
2013-08-28 15:22:00,93.2,66.0,29.92,East,100,4.0,5.0,41,0.00,,,0.00,Wunderground v.1.15,2013-08-28 20:22:00,
2013-08-28 15:23:00,92.9,65.0,29.92,ESE,119,4.0,5.0,40,0.00,,,0.00,Wunderground v.1.15,2013-08-28 20:23:00,
2013-08-28 15:25:00,92.7,65.6,29.92,SE,126,4.0,9.0,41,0.00,,,0.00,Wunderground v.1.15,2013-08-28 20:25:00,
2013-08-28 15:26:00,92.5,65.4,29.92,East,92,4.0,9.0,41,0.00,,,0.00,Wunderground v.1.15,2013-08-28 20:26:00,
2013-08-28 15:27:00,92.5,65.4,29.92,ESE,113,4.0,9.0,41,0.00,,,0.00,Wunderground v.1.15,2013-08-28 20:27:00,
2013-08-28 15:28:00,92.7,64.8,29.92,ESE,110,4.0,9.0,40,0.00,,,0.00,Wunderground v.1.15,2013-08-28 20:28:00,
2013-08-28 15:30:00,92.3,64.5,29.92,ESE,114,4.0,6.0,40,0.00,,,0.00,Wunderground v.1.15,2013-08-28 20:30:00,
2013-08-28 15:34:00,91.8,64.7,29.91,SE,140,5.0,8.0,41,0.00,,,0.00,Wunderground v.1.15,2013-08-28 20:34:00,
2013-08-28 15:35:00,91.6,64.6,29.91,SE,140,5.0,8.0,41,0.00,,,0.00,Wunderground v.1.15,2013-08-28 20:35:00,
2013-08-28 15:40:00,91.0,65.4,29.91,SE,144,5.0,5.0,43,0.00,,,0.00,Wunderground v.1.15,2013-08-28 20:40:00,
2013-08-28 15:42:00,91.2,65.6,29.91,SSE,161,4.0,5.0,43,0.00,,,0.00,Wunderground v.1.15,2013-08-28 20:42:00,
2013-08-28 15:43:00,91.2,64.9,29.91,SSE,161,4.0,5.0,42,0.00,,,0.00,Wunderground v.1.15,2013-08-28 20:43:00,
2013-08-28 15:44:00,91.2,64.9,29.91,South,175,3.0,5.0,42,0.00,,,0.00,Wunderground v.1.15,2013-08-28 20:44:00,
2013-08-28 15:47:00,91.4,65.1,29.90,East,95,3.0,7.0,42,0.00,,,0.00,Wunderground v.1.15,2013-08-28 20:47:00,
2013-08-28 15:48:00,91.4,65.1,29.90,ESE,112,2.0,7.0,42,0.00,,,0.00,Wunderground v.1.15,2013-08-28 20:48:00,
2013-08-28 15:50:00,91.6,64.6,29.90,South,178,2.0,6.0,41,0.00,,,0.00,Wunderground v.1.15,2013-08-28 20:50:00,
2013-08-28 15:51:00,91.6,64.6,29.90,SE,134,3.0,6.0,41,0.00,,,0.00,Wunderground v.1.15,2013-08-28 20:51:00,
2013-08-28 15:54:00,92.1,65.0,29.90,SSE,147,3.0,8.0,41,0.00,,,0.00,Wunderground v.1.15,2013-08-28 20:54:00,
2013-08-28 15:55:00,92.3,65.2,29.90,SE,136,4.0,8.0,41,0.00,,,0.00,Wunderground v.1.15,2013-08-28 20:55:00,
2013-08-28 15:56:00,92.3,64.5,29.90,SSE,165,4.0,8.0,40,0.00,,,0.00,Wunderground v.1.15,2013-08-28 20:56:00,
2013-08-28 16:00:00,92.7,65.6,29.90,SSE,164,3.0,3.0,41,0.00,,,0.00,Wunderground v.1.15,2013-08-28 21:00:00,
2013-08-28 16:01:00,92.7,64.8,29.90,SSE,162,3.0,3.0,40,0.00,,,0.00,Wunderground v.1.15,2013-08-28 21:01:00,
2013-08-28 16:03:00,92.9,65.7,29.90,SSE,158,3.0,3.0,41,0.00,,,0.00,Wunderground v.1.15,2013-08-28 21:03:00,
2013-08-28 16:06:00,92.7,64.8,29.90,SE,136,3.0,12.0,40,0.00,,,0.00,Wunderground v.1.15,2013-08-28 21:06:00,
2013-08-28 16:07:00,92.5,65.4,29.90,SSE,148,3.0,12.0,41,0.00,,,0.00,Wunderground v.1.15,2013-08-28 21:07:00,
2013-08-28 16:10:00,92.5,64.7,29.90,SSE,148,5.0,6.0,40,0.00,,,0.00,Wunderground v.1.15,2013-08-28 21:10:00,
2013-08-28 16:12:00,92.5,65.4,29.90,South,188,6.0,8.0,41,0.00,,,0.00,Wunderground v.1.15,2013-08-28 21:12:00,
2013-08-28 16:13:00,92.5,65.4,29.90,South,174,6.0,8.0,41,0.00,,,0.00,Wunderground v.1.15,2013-08-28 21:13:00,
2013-08-28 16:18:00,92.1,65.0,29.90,SSW,205,4.0,8.0,41,0.00,,,0.00,Wunderground v.1.15,2013-08-28 21:18:00,
2013-08-28 16:20:00,92.3,65.2,29.90,SSW,213,4.0,8.0,41,0.00,,,0.00,Wunderground v.1.15,2013-08-28 21:20:00,
2013-08-28 16:22:00,92.3,65.2,29.90,SSE,167,3.0,5.0,41,0.00,,,0.00,Wunderground v.1.15,2013-08-28 21:22:00,
2013-08-28 16:23:00,92.5,65.4,29.90,SSE,150,3.0,5.0,41,0.00,,,0.00,Wunderground v.1.15,2013-08-28 21:23:00,
2013-08-28 16:25:00,92.5,65.4,29.90,SE,138,3.0,5.0,41,0.00,,,0.00,Wunderground v.1.15,2013-08-28 21:25:00,
2013-08-28 16:28:00,92.9,65.7,29.90,South,181,2.0,5.0,41,0.00,,,0.00,Wunderground v.1.15,2013-08-28 21:28:00,
2013-08-28 16:31:00,93.4,65.5,29.90,WSW,247,3.0,4.0,40,0.00,,,0.00,Wunderground v.1.15,2013-08-28 21:31:00,
2013-08-28 16:32:00,93.4,64.7,29.89,WSW,247,3.0,4.0,39,0.00,,,0.00,Wunderground v.1.15,2013-08-28 21:32:00,
2013-08-28 16:36:00,93.2,65.3,29.89,ESE,107,4.0,11.0,40,0.00,,,0.00,Wunderground v.1.15,2013-08-28 21:36:00,
2013-08-28 16:37:00,92.9,65.0,29.89,SE,127,5.0,11.0,40,0.00,,,0.00,Wunderground v.1.15,2013-08-28 21:37:00,
2013-08-28 16:38:00,92.7,64.8,29.89,ESE,112,5.0,11.0,40,0.00,,,0.00,Wunderground v.1.15,2013-08-28 21:38:00,
2013-08-28 16:43:00,91.8,65.4,29.89,ESE,117,7.0,7.0,42,0.00,,,0.00,Wunderground v.1.15,2013-08-28 21:43:00,
2013-08-28 16:44:00,91.6,65.3,29.89,SSE,147,7.0,11.0,42,0.00,,,0.00,Wunderground v.1.15,2013-08-28 21:44:00,
2013-08-28 16:46:00,91.4,65.8,29.89,SE,133,7.0,11.0,43,0.00,,,0.00,Wunderground v.1.15,2013-08-28 21:46:00,
2013-08-28 16:48:00,91.2,65.6,29.89,South,176,6.0,11.0,43,0.00,,,0.00,Wunderground v.1.15,2013-08-28 21:48:00,
2013-08-28 16:52:00,91.4,65.8,29.89,SSE,154,5.0,6.0,43,0.00,,,0.00,Wunderground v.1.15,2013-08-28 21:52:00,
2013-08-28 16:53:00,91.4,65.8,29.89,SSE,154,5.0,6.0,43,0.00,,,0.00,Wunderground v.1.15,2013-08-28 21:53:00,
2013-08-28 16:55:00,91.4,65.1,29.89,SE,133,4.0,6.0,42,0.00,,,0.00,Wunderground v.1.15,2013-08-28 21:55:00,
2013-08-28 16:57:00,91.4,65.1,29.89,SSE,168,4.0,6.0,42,0.00,,,0.00,Wunderground v.1.15,2013-08-28 21:57:00,
2013-08-28 16:58:00,91.4,65.8,29.89,SSE,151,4.0,6.0,43,0.00,,,0.00,Wunderground v.1.15,2013-08-28 21:58:00,
2013-08-28 17:00:00,91.4,65.8,29.89,SSW,193,3.0,3.0,43,0.00,,,0.00,Wunderground v.1.15,2013-08-28 22:00:00,
2013-08-28 17:01:00,91.4,65.8,29.89,SE,134,3.0,5.0,43,0.00,,,0.00,Wunderground v.1.15,2013-08-28 22:01:00,
2013-08-28 17:02:00,91.2,65.6,29.89,ESE,120,3.0,7.0,43,0.00,,,0.00,Wunderground v.1.15,2013-08-28 22:02:00,
2013-08-28 17:04:00,91.2,65.6,29.89,SSW,193,4.0,8.0,43,0.00,,,0.00,Wunderground v.1.15,2013-08-28 22:04:00,
2013-08-28 17:06:00,91.2,65.6,29.89,SE,138,4.0,8.0,43,0.00,,,0.00,Wunderground v.1.15,2013-08-28 22:06:00,
2013-08-28 17:08:00,91.2,65.6,29.89,ESE,112,4.0,8.0,43,0.00,,,0.00,Wunderground v.1.15,2013-08-28 22:08:00,
2013-08-28 17:10:00,91.4,65.8,29.89,ESE,112,4.0,4.0,43,0.00,,,0.00,Wunderground v.1.15,2013-08-28 22:10:00,
2013-08-28 17:11:00,91.4,65.8,29.89,ESE,113,4.0,5.0,43,0.00,,,0.00,Wunderground v.1.15,2013-08-28 22:11:00,
2013-08-28 17:13:00,91.4,65.8,29.89,South,169,3.0,5.0,43,0.00,,,0.00,Wunderground v.1.15,2013-08-28 22:13:00,
2013-08-28 17:14:00,91.6,65.9,29.89,South,169,3.0,5.0,43,0.00,,,0.00,Wunderground v.1.15,2013-08-28 22:14:00,
2013-08-28 17:16:00,91.8,66.1,29.89,ESE,109,3.0,5.0,43,0.00,,,0.00,Wunderground v.1.15,2013-08-28 22:16:00,
2013-08-28 17:17:00,92.1,65.7,29.89,ESE,106,3.0,7.0,42,0.00,,,0.00,Wunderground v.1.15,2013-08-28 22:17:00,
2013-08-28 17:18:00,92.1,65.7,29.89,SSE,161,3.0,7.0,42,0.00,,,0.00,Wunderground v.1.15,2013-08-28 22:18:00,
2013-08-28 17:20:00,91.8,65.4,29.89,South,174,4.0,4.0,42,0.00,,,0.00,Wunderground v.1.15,2013-08-28 22:20:00,
2013-08-28 17:21:00,92.1,65.7,29.89,SSW,192,4.0,4.0,42,0.00,,,0.00,Wunderground v.1.15,2013-08-28 22:21:00,
2013-08-28 17:24:00,92.1,65.7,29.89,ESE,109,4.0,5.0,42,0.00,,,0.00,Wunderground v.1.15,2013-08-28 22:24:00,
2013-08-28 17:26:00,92.3,66.6,29.89,ESE,109,4.0,5.0,43,0.00,,,0.00,Wunderground v.1.15,2013-08-28 22:26:00,
2013-08-28 17:27:00,92.5,66.1,29.89,SE,124,3.0,5.0,42,0.00,,,0.00,Wunderground v.1.15,2013-08-28 22:27:00,
2013-08-28 17:28:00,92.7,65.6,29.89,South,189,3.0,6.0,41,0.00,,,0.00,Wunderground v.1.15,2013-08-28 22:28:00,
2013-08-28 17:30:00,92.9,65.7,29.89,SW,236,2.0,3.0,41,0.00,,,0.00,Wunderground v.1.15,2013-08-28 22:30:00,
2013-08-28 17:31:00,93.2,66.0,29.89,SSW,212,2.0,3.0,41,0.00,,,0.00,Wunderground v.1.15,2013-08-28 22:31:00,
2013-08-28 17:33:00,93.4,65.5,29.88,SSE,151,3.0,12.0,40,0.00,,,0.00,Wunderground v.1.15,2013-08-28 22:33:00,
2013-08-28 17:35:00,93.2,65.3,29.88,SSE,152,3.0,12.0,40,0.00,,,0.00,Wunderground v.1.15,2013-08-28 22:35:00,
2013-08-28 17:37:00,92.9,65.0,29.88,SSE,150,4.0,12.0,40,0.00,,,0.00,Wunderground v.1.15,2013-08-28 22:37:00,
2013-08-28 17:40:00,92.7,64.8,29.88,SSE,150,5.0,10.0,40,0.00,,,0.00,Wunderground v.1.15,2013-08-28 22:40:00,
2013-08-28 17:41:00,92.5,64.7,29.88,ESE,121,5.0,10.0,40,0.00,,,0.00,Wunderground v.1.15,2013-08-28 22:41:00,
2013-08-28 17:42:00,92.7,65.6,29.88,South,181,5.0,10.0,41,0.00,,,0.00,Wunderground v.1.15,2013-08-28 22:42:00,
2013-08-28 17:43:00,92.7,65.6,29.88,South,172,5.0,10.0,41,0.00,,,0.00,Wunderground v.1.15,2013-08-28 22:43:00,
2013-08-28 17:46:00,92.5,64.7,29.88,East,96,5.0,10.0,40,0.00,,,0.00,Wunderground v.1.15,2013-08-28 22:46:00,
2013-08-28 17:47:00,92.5,65.4,29.88,ESE,123,5.0,10.0,41,0.00,,,0.00,Wunderground v.1.15,2013-08-28 22:47:00,
2013-08-28 17:50:00,92.1,65.0,29.88,SE,136,4.0,8.0,41,0.00,,,0.00,Wunderground v.1.15,2013-08-28 22:50:00,
2013-08-28 17:51:00,92.1,65.0,29.88,SSE,164,4.0,8.0,41,0.00,,,0.00,Wunderground v.1.15,2013-08-28 22:51:00,
2013-08-28 17:53:00,92.3,65.2,29.88,South,172,5.0,8.0,41,0.00,,,0.00,Wunderground v.1.15,2013-08-28 22:53:00,
2013-08-28 17:55:00,92.5,65.4,29.88,South,188,4.0,8.0,41,0.00,,,0.00,Wunderground v.1.15,2013-08-28 22:55:00,
2013-08-28 17:56:00,92.7,64.8,29.88,South,175,4.0,8.0,40,0.00,,,0.00,Wunderground v.1.15,2013-08-28 22:56:00,
2013-08-28 17:57:00,92.7,64.8,29.88,SSE,152,3.0,8.0,40,0.00,,,0.00,Wunderground v.1.15,2013-08-28 22:57:00,
2013-08-28 18:00:00,92.7,64.8,29.88,ESE,123,4.0,4.0,40,0.00,,,0.00,Wunderground v.1.15,2013-08-28 23:00:00,
2013-08-28 18:02:00,92.7,64.8,29.88,SE,136,4.0,7.0,40,0.00,,,0.00,Wunderground v.1.15,2013-08-28 23:02:00,
2013-08-28 18:03:00,92.7,64.8,29.88,SE,141,4.0,7.0,40,0.00,,,0.00,Wunderground v.1.15,2013-08-28 23:03:00,
2013-08-28 18:05:00,92.5,64.7,29.88,SSE,158,5.0,7.0,40,0.00,,,0.00,Wunderground v.1.15,2013-08-28 23:05:00,
2013-08-28 18:08:00,92.5,64.7,29.88,SE,141,6.0,7.0,40,0.00,,,0.00,Wunderground v.1.15,2013-08-28 23:08:00,
2013-08-28 18:10:00,92.3,64.5,29.88,SE,136,6.0,7.0,40,0.00,,,0.00,Wunderground v.1.15,2013-08-28 23:10:00,
2013-08-28 18:11:00,92.3,64.5,29.88,East,82,6.0,7.0,40,0.00,,,0.00,Wunderground v.1.15,2013-08-28 23:11:00,
2013-08-28 18:13:00,92.5,65.4,29.88,SE,127,5.0,7.0,41,0.00,,,0.00,Wunderground v.1.15,2013-08-28 23:13:00,
2013-08-28 18:14:00,92.5,65.4,29.88,SE,140,5.0,7.0,41,0.00,,,0.00,Wunderground v.1.15,2013-08-28 23:14:00,
2013-08-28 18:18:00,92.1,65.0,29.87,SSE,161,6.0,9.0,41,0.00,,,0.00,Wunderground v.1.15,2013-08-28 23:18:00,
2013-08-28 18:19:00,92.1,65.0,29.87,East,96,6.0,9.0,41,0.00,,,0.00,Wunderground v.1.15,2013-08-28 23:19:00,
2013-08-28 18:20:00,91.8,64.7,29.87,ESE,116,6.0,6.0,41,0.00,,,0.00,Wunderground v.1.15,2013-08-28 23:20:00,
2013-08-28 18:24:00,91.6,64.6,29.87,SE,140,5.0,7.0,41,0.00,,,0.00,Wunderground v.1.15,2013-08-28 23:24:00,
2013-08-28 18:25:00,91.6,64.6,29.87,SE,141,5.0,7.0,41,0.00,,,0.00,Wunderground v.1.15,2013-08-28 23:25:00,
2013-08-28 18:26:00,91.6,64.6,29.87,SE,126,4.0,7.0,41,0.00,,,0.00,Wunderground v.1.15,2013-08-28 23:26:00,
2013-08-28 18:27:00,91.6,65.3,29.87,SSE,164,4.0,7.0,42,0.00,,,0.00,Wunderground v.1.15,2013-08-28 23:27:00,
2013-08-28 18:31:00,91.4,65.1,29.87,SSE,161,4.0,6.0,42,0.00,,,0.00,Wunderground v.1.15,2013-08-28 23:31:00,
2013-08-28 18:32:00,91.4,65.1,29.87,SSE,147,4.0,6.0,42,0.00,,,0.00,Wunderground v.1.15,2013-08-28 23:32:00,
2013-08-28 18:35:00,91.4,65.1,29.87,SSE,154,4.0,8.0,42,0.00,,,0.00,Wunderground v.1.15,2013-08-28 23:35:00,
2013-08-28 18:38:00,91.6,64.6,29.87,SSE,162,5.0,8.0,41,0.00,,,0.00,Wunderground v.1.15,2013-08-28 23:38:00,
2013-08-28 18:39:00,91.6,64.6,29.87,SE,128,4.0,8.0,41,0.00,,,0.00,Wunderground v.1.15,2013-08-28 23:39:00,
2013-08-28 18:43:00,91.4,65.1,29.87,ESE,116,4.0,6.0,42,0.00,,,0.00,Wunderground v.1.15,2013-08-28 23:43:00,
2013-08-28 18:46:00,91.4,65.1,29.87,SE,128,4.0,8.0,42,0.00,,,0.00,Wunderground v.1.15,2013-08-28 23:46:00,
2013-08-28 18:47:00,91.4,65.1,29.87,ESE,110,4.0,8.0,42,0.00,,,0.00,Wunderground v.1.15,2013-08-28 23:47:00,
2013-08-28 18:51:00,91.4,65.1,29.87,SE,124,4.0,8.0,42,0.00,,,0.00,Wunderground v.1.15,2013-08-28 23:51:00,
2013-08-28 18:52:00,91.4,64.4,29.87,ESE,107,3.0,6.0,41,0.00,,,0.00,Wunderground v.1.15,2013-08-28 23:52:00,
2013-08-28 18:53:00,91.4,65.1,29.87,ENE,73,3.0,6.0,42,0.00,,,0.00,Wunderground v.1.15,2013-08-28 23:53:00,
2013-08-28 18:54:00,91.4,65.1,29.87,ESE,110,3.0,6.0,42,0.00,,,0.00,Wunderground v.1.15,2013-08-28 23:54:00,
2013-08-28 18:59:00,91.0,64.7,29.87,East,88,4.0,6.0,42,0.00,,,0.00,Wunderground v.1.15,2013-08-28 23:59:00,
2013-08-28 19:01:00,91.0,65.4,29.87,ESE,109,5.0,9.0,43,0.00,,,0.00,Wunderground v.1.15,2013-08-29 00:01:00,
2013-08-28 19:02:00,91.0,64.7,29.87,ESE,103,5.0,9.0,42,0.00,,,0.00,Wunderground v.1.15,2013-08-29 00:02:00,
2013-08-28 19:03:00,90.7,64.5,29.87,ENE,62,6.0,9.0,42,0.00,,,0.00,Wunderground v.1.15,2013-08-29 00:03:00,
2013-08-28 19:05:00,90.7,65.1,29.87,SE,131,6.0,10.0,43,0.00,,,0.00,Wunderground v.1.15,2013-08-29 00:05:00,
2013-08-28 19:07:00,90.7,65.1,29.87,ENE,76,5.0,10.0,43,0.00,,,0.00,Wunderground v.1.15,2013-08-29 00:07:00,
2013-08-28 19:08:00,90.7,65.1,29.87,ENE,76,5.0,10.0,43,0.00,,,0.00,Wunderground v.1.15,2013-08-29 00:08:00,
2013-08-28 19:09:00,90.7,65.1,29.87,ESE,102,4.0,10.0,43,0.00,,,0.00,Wunderground v.1.15,2013-08-29 00:09:00,
2013-08-28 19:11:00,90.7,64.5,29.87,ESE,102,4.0,7.0,42,0.00,,,0.00,Wunderground v.1.15,2013-08-29 00:11:00,
2013-08-28 19:12:00,90.5,64.3,29.87,ENE,78,4.0,7.0,42,0.00,,,0.00,Wunderground v.1.15,2013-08-29 00:12:00,
2013-08-28 19:13:00,90.5,64.9,29.87,ESE,109,4.0,7.0,43,0.00,,,0.00,Wunderground v.1.15,2013-08-29 00:13:00,
2013-08-28 19:14:00,90.5,64.9,29.87,ESE,112,4.0,7.0,43,0.00,,,0.00,Wunderground v.1.15,2013-08-29 00:14:00,
2013-08-28 19:15:00,90.5,64.9,29.87,ESE,116,3.0,7.0,43,0.00,,,0.00,Wunderground v.1.15,2013-08-29 00:15:00,
2013-08-28 19:17:00,90.3,64.8,29.88,SE,134,4.0,7.0,43,0.00,,,0.00,Wunderground v.1.15,2013-08-29 00:17:00,
2013-08-28 19:23:00,90.1,64.6,29.88,SE,126,4.0,7.0,43,0.00,,,0.00,Wunderground v.1.15,2013-08-29 00:23:00,
2013-08-28 19:24:00,90.1,64.6,29.88,ESE,123,4.0,7.0,43,0.00,,,0.00,Wunderground v.1.15,2013-08-29 00:24:00,
2013-08-28 19:25:00,90.1,64.6,29.88,ESE,117,4.0,7.0,43,0.00,,,0.00,Wunderground v.1.15,2013-08-29 00:25:00,
2013-08-28 19:28:00,90.1,64.6,29.88,ESE,104,4.0,7.0,43,0.00,,,0.00,Wunderground v.1.15,2013-08-29 00:28:00,
2013-08-28 19:31:00,89.9,64.4,29.88,ESE,106,3.0,3.0,43,0.00,,,0.00,Wunderground v.1.15,2013-08-29 00:31:00,
2013-08-28 19:35:00,89.9,65.1,29.88,SE,127,2.0,6.0,44,0.00,,,0.00,Wunderground v.1.15,2013-08-29 00:35:00,
2013-08-28 19:36:00,89.9,65.1,29.88,SE,126,2.0,6.0,44,0.00,,,0.00,Wunderground v.1.15,2013-08-29 00:36:00,
2013-08-28 19:37:00,89.9,65.1,29.88,SE,126,2.0,6.0,44,0.00,,,0.00,Wunderground v.1.15,2013-08-29 00:37:00,
2013-08-28 19:39:00,89.7,64.9,29.88,ESE,116,2.0,6.0,44,0.00,,,0.00,Wunderground v.1.15,2013-08-29 00:39:00,
2013-08-28 19:41:00,89.7,64.9,29.88,ESE,123,2.0,3.0,44,0.00,,,0.00,Wunderground v.1.15,2013-08-29 00:41:00,
2013-08-28 19:42:00,89.7,64.9,29.88,ESE,119,2.0,6.0,44,0.00,,,0.00,Wunderground v.1.15,2013-08-29 00:42:00,
2013-08-28 19:43:00,89.5,64.7,29.88,SE,134,3.0,6.0,44,0.00,,,0.00,Wunderground v.1.15,2013-08-29 00:43:00,
2013-08-28 19:46:00,89.5,64.7,29.88,SE,134,2.0,6.0,44,0.00,,,0.00,Wunderground v.1.15,2013-08-29 00:46:00,
2013-08-28 19:47:00,89.5,64.7,29.88,ESE,114,2.0,6.0,44,0.00,,,0.00,Wunderground v.1.15,2013-08-29 00:47:00,
2013-08-28 19:48:00,89.5,64.7,29.88,ESE,114,2.0,6.0,44,0.00,,,0.00,Wunderground v.1.15,2013-08-29 00:48:00,
2013-08-28 19:51:00,89.3,65.2,29.88,ESE,114,1.0,1.0,45,0.00,,,0.00,Wunderground v.1.15,2013-08-29 00:51:00,
2013-08-28 19:52:00,89.3,64.5,29.88,ESE,114,1.0,1.0,44,0.00,,,0.00,Wunderground v.1.15,2013-08-29 00:52:00,
2013-08-28 19:53:00,89.3,65.2,29.88,ESE,114,1.0,1.0,45,0.00,,,0.00,Wunderground v.1.15,2013-08-29 00:53:00,
2013-08-28 19:54:00,89.3,65.2,29.88,ESE,114,1.0,1.0,45,0.00,,,0.00,Wunderground v.1.15,2013-08-29 00:54:00,
2013-08-28 19:55:00,89.3,64.5,29.88,ESE,114,1.0,1.0,44,0.00,,,0.00,Wunderground v.1.15,2013-08-29 00:55:00,
2013-08-28 19:58:00,89.3,65.2,29.88,ESE,114,0.0,1.0,45,0.00,,,0.00,Wunderground v.1.15,2013-08-29 00:58:00,
2013-08-28 19:59:00,89.0,64.3,29.88,ESE,114,0.0,1.0,44,0.00,,,0.00,Wunderground v.1.15,2013-08-29 00:59:00,
2013-08-28 20:00:00,89.0,64.9,29.88,ESE,114,0.0,0.0,45,0.00,,,0.00,Wunderground v.1.15,2013-08-29 01:00:00,
2013-08-28 20:01:00,89.0,64.9,29.88,ESE,114,0.0,2.0,45,0.00,,,0.00,Wunderground v.1.15,2013-08-29 01:01:00,
2013-08-28 20:03:00,89.0,64.9,29.88,ESE,114,0.0,2.0,45,0.00,,,0.00,Wunderground v.1.15,2013-08-29 01:03:00,
2013-08-28 20:04:00,88.8,64.7,29.88,ESE,114,0.0,2.0,45,0.00,,,0.00,Wunderground v.1.15,2013-08-29 01:04:00,
2013-08-28 20:08:00,88.6,64.5,29.88,ESE,119,1.0,5.0,45,0.00,,,0.00,Wunderground v.1.15,2013-08-29 01:08:00,
2013-08-28 20:09:00,88.6,64.5,29.88,ESE,119,1.0,5.0,45,0.00,,,0.00,Wunderground v.1.15,2013-08-29 01:09:00,
2013-08-28 20:12:00,88.6,64.5,29.88,ESE,120,1.0,1.0,45,0.00,,,0.00,Wunderground v.1.15,2013-08-29 01:12:00,
2013-08-28 20:13:00,88.4,64.4,29.88,ESE,120,1.0,1.0,45,0.00,,,0.00,Wunderground v.1.15,2013-08-29 01:13:00,
2013-08-28 20:15:00,88.4,65.0,29.88,ESE,120,1.0,2.0,46,0.00,,,0.00,Wunderground v.1.15,2013-08-29 01:15:00,
2013-08-28 20:17:00,88.0,65.2,29.88,ESE,113,1.0,-999.0,47,0.00,,,0.00,Wunderground v.1.15,2013-08-29 01:17:00,
2013-08-28 20:18:00,88.2,64.8,29.88,ESE,116,1.0,2.0,46,0.00,,,0.00,Wunderground v.1.15,2013-08-29 01:18:00,
2013-08-28 20:19:00,88.2,64.8,29.88,ESE,116,1.0,2.0,46,0.00,,,0.00,Wunderground v.1.15,2013-08-29 01:19:00,
2013-08-28 20:20:00,88.0,64.6,29.88,ESE,116,1.0,1.0,46,0.00,,,0.00,Wunderground v.1.15,2013-08-29 01:20:00,
2013-08-28 20:21:00,88.0,64.6,29.88,ESE,116,1.0,1.0,46,0.00,,,0.00,Wunderground v.1.15,2013-08-29 01:21:00,
2013-08-28 20:22:00,88.0,65.2,29.88,ESE,113,1.0,-999.0,47,0.00,,,0.00,Wunderground v.1.15,2013-08-29 01:22:00,
2013-08-28 20:24:00,88.0,65.2,29.88,ESE,116,1.0,3.0,47,0.00,,,0.00,Wunderground v.1.15,2013-08-29 01:24:00,
2013-08-28 20:25:00,87.8,65.1,29.88,ESE,116,1.0,3.0,47,0.00,,,0.00,Wunderground v.1.15,2013-08-29 01:25:00,
2013-08-28 20:26:00,87.8,65.1,29.88,ESE,116,1.0,3.0,47,0.00,,,0.00,Wunderground v.1.15,2013-08-29 01:26:00,
2013-08-28 20:27:00,87.8,65.1,29.88,ESE,116,1.0,3.0,47,0.00,,,0.00,Wunderground v.1.15,2013-08-29 01:27:00,
2013-08-28 20:29:00,87.6,65.5,29.88,ESE,116,1.0,3.0,48,0.00,,,0.00,Wunderground v.1.15,2013-08-29 01:29:00,
2013-08-28 20:31:00,87.4,65.3,29.88,ESE,117,1.0,3.0,48,0.00,,,0.00,Wunderground v.1.15,2013-08-29 01:31:00,
2013-08-28 20:32:00,87.4,65.3,29.88,ESE,117,1.0,3.0,48,0.00,,,0.00,Wunderground v.1.15,2013-08-29 01:32:00,
2013-08-28 20:34:00,87.4,65.3,29.88,ESE,117,1.0,3.0,48,0.00,,,0.00,Wunderground v.1.15,2013-08-29 01:34:00,
2013-08-28 20:36:00,87.4,65.9,29.88,ESE,117,1.0,3.0,49,0.00,,,0.00,Wunderground v.1.15,2013-08-29 01:36:00,
2013-08-28 20:37:00,87.2,65.7,29.88,ESE,113,0.0,-999.0,49,0.00,,,0.00,Wunderground v.1.15,2013-08-29 01:37:00,
2013-08-28 20:40:00,87.2,65.7,29.88,ESE,117,0.0,0.0,49,0.00,,,0.00,Wunderground v.1.15,2013-08-29 01:40:00,
2013-08-28 20:41:00,87.2,65.7,29.88,ESE,117,0.0,0.0,49,0.00,,,0.00,Wunderground v.1.15,2013-08-29 01:41:00,
2013-08-28 20:42:00,87.2,65.7,29.88,ESE,117,0.0,0.0,49,0.00,,,0.00,Wunderground v.1.15,2013-08-29 01:42:00,
2013-08-28 20:46:00,87.0,65.5,29.88,ESE,117,0.0,1.0,49,0.00,,,0.00,Wunderground v.1.15,2013-08-29 01:46:00,
2013-08-28 20:47:00,87.0,66.1,29.89,ESE,117,0.0,1.0,50,0.00,,,0.00,Wunderground v.1.15,2013-08-29 01:47:00,
2013-08-28 20:48:00,87.0,66.1,29.89,ESE,117,0.0,1.0,50,0.00,,,0.00,Wunderground v.1.15,2013-08-29 01:48:00,
2013-08-28 20:50:00,86.7,65.8,29.89,ESE,117,0.0,0.0,50,0.00,,,0.00,Wunderground v.1.15,2013-08-29 01:50:00,
2013-08-28 20:52:00,86.5,65.7,29.89,ESE,117,0.0,0.0,50,0.00,,,0.00,Wunderground v.1.15,2013-08-29 01:52:00,
2013-08-28 20:54:00,86.5,65.7,29.89,ESE,117,0.0,0.0,50,0.00,,,0.00,Wunderground v.1.15,2013-08-29 01:54:00,
2013-08-28 20:56:00,86.5,65.7,29.89,ESE,117,0.0,0.0,50,0.00,,,0.00,Wunderground v.1.15,2013-08-29 01:56:00,
2013-08-28 20:57:00,86.5,65.7,29.89,ESE,117,0.0,0.0,50,0.00,,,0.00,Wunderground v.1.15,2013-08-29 01:57:00,
2013-08-28 20:59:00,86.5,65.7,29.89,ESE,117,0.0,0.0,50,0.00,,,0.00,Wunderground v.1.15,2013-08-29 01:59:00,
2013-08-28 21:00:00,86.5,65.7,29.89,ESE,117,0.0,0.0,50,0.00,,,0.00,Wunderground v.1.15,2013-08-29 02:00:00,
2013-08-28 21:01:00,86.5,65.7,29.89,ESE,117,0.0,0.0,50,0.00,,,0.00,Wunderground v.1.15,2013-08-29 02:01:00,
2013-08-28 21:02:00,86.5,65.7,29.89,ESE,117,0.0,0.0,50,0.00,,,0.00,Wunderground v.1.15,2013-08-29 02:02:00,
2013-08-28 21:04:00,86.5,65.7,29.89,ESE,117,0.0,0.0,50,0.00,,,0.00,Wunderground v.1.15,2013-08-29 02:04:00,
2013-08-28 21:05:00,-999.9,-99.9,29.89,N/A,-737280,0.0,-999.0,-32768,0.00,,,0.00,Wunderground v.1.15,2013-08-29 02:05:00,
2013-08-28 21:06:00,86.5,65.7,29.89,ESE,117,0.0,0.0,50,0.00,,,0.00,Wunderground v.1.15,2013-08-29 02:06:00,
2013-08-28 21:07:00,-999.9,-99.9,29.89,N/A,-737280,0.0,-999.0,-32768,0.00,,,0.00,Wunderground v.1.15,2013-08-29 02:07:00,
2013-08-28 21:10:00,-999.9,-99.9,29.89,North,32767,-999.0,0.0,255,-99.99,,,0.00,Wunderground v.1.15,2013-08-29 02:10:00,
2013-08-28 21:11:00,-999.9,-99.9,29.89,North,32767,-999.0,0.0,255,-99.99,,,0.00,Wunderground v.1.15,2013-08-29 02:11:00,
2013-08-28 21:12:00,-999.9,-99.9,29.89,N/A,-737280,0.0,-999.0,-32768,0.00,,,0.00,Wunderground v.1.15,2013-08-29 02:12:00,
2013-08-28 21:15:00,-999.9,-99.9,29.90,N/A,-737280,0.0,-999.0,-32768,0.00,,,0.00,Wunderground v.1.15,2013-08-29 02:15:00,
2013-08-28 21:16:00,-999.9,-99.9,29.89,North,32767,-999.0,0.0,255,-99.99,,,0.00,Wunderground v.1.15,2013-08-29 02:16:00,
2013-08-28 21:17:00,-999.9,-99.9,29.90,North,32767,-999.0,0.0,255,-99.99,,,0.00,Wunderground v.1.15,2013-08-29 02:17:00,
2013-08-28 21:18:00,-999.9,-99.9,29.90,North,32767,-999.0,0.0,255,-99.99,,,0.00,Wunderground v.1.15,2013-08-29 02:18:00,
2013-08-28 21:20:00,-999.9,-99.9,29.90,N/A,-737280,0.0,-999.0,-32768,0.00,,,0.00,Wunderground v.1.15,2013-08-29 02:20:00,
2013-08-28 21:22:00,-999.9,-99.9,29.90,North,32767,-999.0,0.0,255,-99.99,,,0.00,Wunderground v.1.15,2013-08-29 02:22:00,
2013-08-28 21:23:00,-999.9,-99.9,29.90,North,32767,-999.0,0.0,255,-99.99,,,0.00,Wunderground v.1.15,2013-08-29 02:23:00,
2013-08-28 21:24:00,85.3,-99.9,29.90,SE,127,0.0,0.0,255,0.00,,,0.00,Wunderground v.1.15,2013-08-29 02:24:00,
2013-08-28 21:25:00,85.3,66.8,29.90,SE,127,0.0,0.0,54,0.00,,,0.00,Wunderground v.1.15,2013-08-29 02:25:00,
2013-08-28 21:27:00,85.3,66.8,29.90,SE,135,0.0,-999.0,54,0.00,,,0.00,Wunderground v.1.15,2013-08-29 02:27:00,
2013-08-28 21:28:00,85.3,66.8,29.90,SE,127,0.0,0.0,54,0.00,,,0.00,Wunderground v.1.15,2013-08-29 02:28:00,
2013-08-28 21:29:00,85.3,66.8,29.90,SE,127,0.0,0.0,54,0.00,,,0.00,Wunderground v.1.15,2013-08-29 02:29:00,
2013-08-28 21:30:00,85.3,66.8,29.90,SE,127,0.0,0.0,54,0.00,,,0.00,Wunderground v.1.15,2013-08-29 02:30:00,
2013-08-28 21:31:00,85.3,66.8,29.90,SE,127,0.0,0.0,54,0.00,,,0.00,Wunderground v.1.15,2013-08-29 02:31:00,
2013-08-28 21:32:00,85.3,66.8,29.90,SE,127,0.0,0.0,54,0.00,,,0.00,Wunderground v.1.15,2013-08-29 02:32:00,
2013-08-28 21:34:00,85.1,67.1,29.90,SE,127,0.0,2.0,55,0.00,,,0.00,Wunderground v.1.15,2013-08-29 02:34:00,
2013-08-28 21:35:00,84.9,66.9,29.90,SE,135,0.0,-999.0,55,0.00,,,0.00,Wunderground v.1.15,2013-08-29 02:35:00,
2013-08-28 21:37:00,85.1,67.1,29.90,SE,127,0.0,2.0,55,0.00,,,0.00,Wunderground v.1.15,2013-08-29 02:37:00,
2013-08-28 21:38:00,85.1,67.1,29.90,SE,127,0.0,2.0,55,0.00,,,0.00,Wunderground v.1.15,2013-08-29 02:38:00,
2013-08-28 21:40:00,84.9,66.9,29.90,SE,135,0.0,-999.0,55,0.00,,,0.00,Wunderground v.1.15,2013-08-29 02:40:00,
2013-08-28 21:41:00,85.1,67.1,29.90,SE,127,0.0,1.0,55,0.00,,,0.00,Wunderground v.1.15,2013-08-29 02:41:00,
2013-08-28 21:42:00,84.9,66.9,29.90,SE,127,0.0,1.0,55,0.00,,,0.00,Wunderground v.1.15,2013-08-29 02:42:00,
2013-08-28 21:44:00,84.9,66.9,29.90,SE,127,0.0,1.0,55,0.00,,,0.00,Wunderground v.1.15,2013-08-29 02:44:00,
2013-08-28 21:45:00,84.9,66.9,29.90,SE,127,0.0,1.0,55,0.00,,,0.00,Wunderground v.1.15,2013-08-29 02:45:00,
2013-08-28 21:47:00,84.5,67.1,29.90,SE,135,0.0,-999.0,56,0.00,,,0.00,Wunderground v.1.15,2013-08-29 02:47:00,
2013-08-28 21:49:00,84.7,67.3,29.90,SE,127,0.0,1.0,56,0.00,,,0.00,Wunderground v.1.15,2013-08-29 02:49:00,
2013-08-28 21:50:00,84.5,67.1,29.90,SE,135,0.0,-999.0,56,0.00,,,0.00,Wunderground v.1.15,2013-08-29 02:50:00,
2013-08-28 21:52:00,84.7,67.3,29.90,SE,127,0.0,1.0,56,0.00,,,0.00,Wunderground v.1.15,2013-08-29 02:52:00,
2013-08-28 21:53:00,84.5,67.1,29.90,SE,127,0.0,1.0,56,0.00,,,0.00,Wunderground v.1.15,2013-08-29 02:53:00,
2013-08-28 21:54:00,84.5,67.1,29.90,ESE,109,0.0,5.0,56,0.00,,,0.00,Wunderground v.1.15,2013-08-29 02:54:00,
2013-08-28 21:55:00,84.5,67.1,29.90,East,92,0.0,5.0,56,0.00,,,0.00,Wunderground v.1.15,2013-08-29 02:55:00,
2013-08-28 21:56:00,84.5,67.6,29.90,SSE,155,1.0,5.0,57,0.00,,,0.00,Wunderground v.1.15,2013-08-29 02:56:00,
2013-08-28 21:57:00,84.3,67.9,29.91,SE,135,4.0,-999.0,58,0.00,,,0.00,Wunderground v.1.15,2013-08-29 02:57:00,
2013-08-28 21:58:00,84.3,67.4,29.90,SE,127,2.0,7.0,57,0.00,,,0.00,Wunderground v.1.15,2013-08-29 02:58:00,
2013-08-28 22:00:00,84.3,67.9,29.91,SE,135,4.0,-999.0,58,0.00,,,0.00,Wunderground v.1.15,2013-08-29 03:00:00,
2013-08-28 22:01:00,84.3,67.9,29.90,SE,141,4.0,7.0,58,0.00,,,0.00,Wunderground v.1.15,2013-08-29 03:01:00,
2013-08-28 22:02:00,84.3,67.9,29.91,SSE,158,4.0,7.0,58,0.00,,,0.00,Wunderground v.1.15,2013-08-29 03:02:00,
2013-08-28 22:03:00,84.3,67.9,29.91,SSE,148,5.0,7.0,58,0.00,,,0.00,Wunderground v.1.15,2013-08-29 03:03:00,
2013-08-28 22:04:00,84.3,67.9,29.91,SE,145,5.0,7.0,58,0.00,,,0.00,Wunderground v.1.15,2013-08-29 03:04:00,
2013-08-28 22:05:00,84.1,68.2,29.91,SE,135,4.0,-999.0,59,0.00,,,0.00,Wunderground v.1.15,2013-08-29 03:05:00,
2013-08-28 22:07:00,84.1,67.7,29.91,SE,137,6.0,7.0,58,0.00,,,0.00,Wunderground v.1.15,2013-08-29 03:07:00,
2013-08-28 22:09:00,84.1,67.7,29.91,SE,138,5.0,10.0,58,0.00,,,0.00,Wunderground v.1.15,2013-08-29 03:09:00,
2013-08-28 22:10:00,84.1,67.7,29.91,SE,128,5.0,6.0,58,0.00,,,0.00,Wunderground v.1.15,2013-08-29 03:10:00,
2013-08-28 22:11:00,84.1,67.7,29.91,SE,128,5.0,6.0,58,0.00,,,0.00,Wunderground v.1.15,2013-08-29 03:11:00,
2013-08-28 22:12:00,84.1,68.2,29.91,SE,137,5.0,6.0,59,0.00,,,0.00,Wunderground v.1.15,2013-08-29 03:12:00,
2013-08-28 22:15:00,84.1,68.2,29.91,SSE,147,5.0,9.0,59,0.00,,,0.00,Wunderground v.1.15,2013-08-29 03:15:00,
2013-08-28 22:18:00,84.0,68.1,29.91,SE,128,4.0,9.0,59,0.00,,,0.00,Wunderground v.1.15,2013-08-29 03:18:00,
2013-08-28 22:20:00,84.0,68.1,29.91,ESE,120,5.0,9.0,59,0.00,,,0.00,Wunderground v.1.15,2013-08-29 03:20:00,
2013-08-28 22:22:00,84.0,68.1,29.91,SE,145,5.0,9.0,59,0.00,,,0.00,Wunderground v.1.15,2013-08-29 03:22:00,
2013-08-28 22:23:00,83.8,68.4,29.91,SE,141,5.0,9.0,60,0.00,,,0.00,Wunderground v.1.15,2013-08-29 03:23:00,
2013-08-28 22:25:00,83.8,68.4,29.91,SE,136,5.0,9.0,60,0.00,,,0.00,Wunderground v.1.15,2013-08-29 03:25:00,
2013-08-28 22:28:00,83.8,68.4,29.91,SE,138,5.0,9.0,60,0.00,,,0.00,Wunderground v.1.15,2013-08-29 03:28:00,
2013-08-28 22:29:00,83.6,68.2,29.91,SE,143,5.0,9.0,60,0.00,,,0.00,Wunderground v.1.15,2013-08-29 03:29:00,
2013-08-28 22:33:00,83.6,68.2,29.92,SE,134,5.0,7.0,60,0.00,,,0.00,Wunderground v.1.15,2013-08-29 03:33:00,
2013-08-28 22:34:00,83.4,68.5,29.92,SE,136,5.0,7.0,61,0.00,,,0.00,Wunderground v.1.15,2013-08-29 03:34:00,
2013-08-28 22:37:00,83.4,68.5,29.92,South,185,5.0,7.0,61,0.00,,,0.00,Wunderground v.1.15,2013-08-29 03:37:00,
2013-08-28 22:39:00,83.4,68.5,29.92,SE,134,5.0,7.0,61,0.00,,,0.00,Wunderground v.1.15,2013-08-29 03:39:00,
2013-08-28 22:41:00,83.4,68.5,29.92,SE,136,4.0,4.0,61,0.00,,,0.00,Wunderground v.1.15,2013-08-29 03:41:00,
2013-08-28 22:42:00,83.2,68.3,29.92,SE,137,4.0,5.0,61,0.00,,,0.00,Wunderground v.1.15,2013-08-29 03:42:00,
2013-08-28 22:46:00,83.2,68.8,29.92,SE,141,3.0,5.0,62,0.00,,,0.00,Wunderground v.1.15,2013-08-29 03:46:00,
2013-08-28 22:47:00,83.2,68.8,29.92,SE,141,3.0,5.0,62,0.00,,,0.00,Wunderground v.1.15,2013-08-29 03:47:00,
2013-08-28 22:48:00,83.0,68.6,29.92,SE,141,3.0,5.0,62,0.00,,,0.00,Wunderground v.1.15,2013-08-29 03:48:00,
2013-08-28 22:51:00,83.0,68.6,29.92,SE,141,2.0,2.0,62,0.00,,,0.00,Wunderground v.1.15,2013-08-29 03:51:00,
2013-08-28 22:52:00,83.0,68.6,29.92,SSE,164,1.0,2.0,62,0.00,,,0.00,Wunderground v.1.15,2013-08-29 03:52:00,
2013-08-28 22:54:00,82.8,68.4,29.92,SSE,147,1.0,5.0,62,0.00,,,0.00,Wunderground v.1.15,2013-08-29 03:54:00,
2013-08-28 22:55:00,82.8,68.4,29.92,SSE,154,1.0,5.0,62,0.00,,,0.00,Wunderground v.1.15,2013-08-29 03:55:00,
2013-08-28 22:57:00,82.8,68.9,29.92,SSE,151,2.0,5.0,63,0.00,,,0.00,Wunderground v.1.15,2013-08-29 03:57:00,
2013-08-28 22:59:00,82.6,68.7,29.92,SSE,148,2.0,5.0,63,0.00,,,0.00,Wunderground v.1.15,2013-08-29 03:59:00,
2013-08-28 23:01:00,82.6,68.7,29.92,ESE,121,2.0,6.0,63,0.00,,,0.00,Wunderground v.1.15,2013-08-29 04:01:00,
2013-08-28 23:03:00,82.6,69.2,29.92,SE,141,3.0,6.0,64,0.00,,,0.00,Wunderground v.1.15,2013-08-29 04:03:00,
2013-08-28 23:06:00,82.4,69.0,29.92,SE,145,3.0,7.0,64,0.00,,,0.00,Wunderground v.1.15,2013-08-29 04:06:00,
2013-08-28 23:07:00,82.4,69.0,29.92,SSE,150,3.0,7.0,64,0.00,,,0.00,Wunderground v.1.15,2013-08-29 04:07:00,
2013-08-28 23:09:00,82.4,69.0,29.92,SE,128,3.0,7.0,64,0.00,,,0.00,Wunderground v.1.15,2013-08-29 04:09:00,
2013-08-28 23:14:00,82.2,69.3,29.92,SE,128,3.0,5.0,65,0.00,,,0.00,Wunderground v.1.15,2013-08-29 04:14:00,
2013-08-28 23:15:00,82.2,69.3,29.92,SE,141,3.0,7.0,65,0.00,,,0.00,Wunderground v.1.15,2013-08-29 04:15:00,
2013-08-28 23:16:00,82.2,69.3,29.92,SE,136,4.0,7.0,65,0.00,,,0.00,Wunderground v.1.15,2013-08-29 04:16:00,
2013-08-28 23:19:00,82.0,69.1,29.93,SE,144,4.0,7.0,65,0.00,,,0.00,Wunderground v.1.15,2013-08-29 04:19:00,
2013-08-28 23:21:00,82.0,69.5,29.93,SSE,148,3.0,3.0,66,0.00,,,0.00,Wunderground v.1.15,2013-08-29 04:21:00,
2013-08-28 23:22:00,82.0,69.5,29.93,SSE,147,3.0,3.0,66,0.00,,,0.00,Wunderground v.1.15,2013-08-29 04:22:00,
2013-08-28 23:23:00,82.0,69.5,29.93,SSE,150,3.0,3.0,66,0.00,,,0.00,Wunderground v.1.15,2013-08-29 04:23:00,
2013-08-28 23:26:00,82.0,69.5,29.93,SE,145,2.0,3.0,66,0.00,,,0.00,Wunderground v.1.15,2013-08-29 04:26:00,
2013-08-28 23:28:00,81.8,69.3,29.93,SSE,147,2.0,3.0,66,0.00,,,0.00,Wunderground v.1.15,2013-08-29 04:28:00,
2013-08-28 23:31:00,81.8,69.3,29.93,SSE,152,2.0,2.0,66,0.00,,,0.00,Wunderground v.1.15,2013-08-29 04:31:00,
2013-08-28 23:32:00,81.8,69.8,29.93,SSE,152,2.0,3.0,67,0.00,,,0.00,Wunderground v.1.15,2013-08-29 04:32:00,
2013-08-28 23:34:00,81.6,69.6,29.93,SSE,161,2.0,5.0,67,0.00,,,0.00,Wunderground v.1.15,2013-08-29 04:34:00,
2013-08-28 23:37:00,81.6,69.6,29.93,SSE,162,2.0,5.0,67,0.00,,,0.00,Wunderground v.1.15,2013-08-29 04:37:00,
2013-08-28 23:39:00,81.4,69.4,29.93,SSE,162,2.0,5.0,67,0.00,,,0.00,Wunderground v.1.15,2013-08-29 04:39:00,
2013-08-28 23:41:00,81.4,69.4,29.93,SSE,162,2.0,2.0,67,0.00,,,0.00,Wunderground v.1.15,2013-08-29 04:41:00,
2013-08-28 23:42:00,81.4,69.8,29.93,SSE,162,2.0,2.0,68,0.00,,,0.00,Wunderground v.1.15,2013-08-29 04:42:00,
2013-08-28 23:43:00,81.4,69.8,29.93,SSE,162,1.0,2.0,68,0.00,,,0.00,Wunderground v.1.15,2013-08-29 04:43:00,
2013-08-28 23:45:00,81.2,69.6,29.93,SSE,162,1.0,3.0,68,0.00,,,0.00,Wunderground v.1.15,2013-08-29 04:45:00,
2013-08-28 23:46:00,81.2,69.6,29.93,SE,143,1.0,3.0,68,0.00,,,0.00,Wunderground v.1.15,2013-08-29 04:46:00,
2013-08-28 23:48:00,81.2,69.6,29.93,SE,143,1.0,3.0,68,0.00,,,0.00,Wunderground v.1.15,2013-08-29 04:48:00,
2013-08-28 23:51:00,81.2,69.6,29.93,SE,143,1.0,3.0,68,0.00,,,0.00,Wunderground v.1.15,2013-08-29 04:51:00,
2013-08-28 23:52:00,81.1,69.5,29.93,SE,143,1.0,1.0,68,0.00,,,0.00,Wunderground v.1.15,2013-08-29 04:52:00,
2013-08-28 23:55:00,81.1,70.0,29.93,SE,144,1.0,1.0,69,0.00,,,0.00,Wunderground v.1.15,2013-08-29 04:55:00,
2013-08-28 23:57:00,81.1,70.0,29.93,SE,144,1.0,2.0,69,0.00,,,0.00,Wunderground v.1.15,2013-08-29 04:57:00,
2013-08-28 23:58:00,80.9,69.8,29.93,SE,144,1.0,2.0,69,0.00,,,0.00,Wunderground v.1.15,2013-08-29 04:58:00,